Observation data for Throckmorton on 01/18/2019      Previous  Date  Next       Current Mesonet Observations  Soil Data  Daily Summary Page  Observations in Plain Language
KTH1 180600Z 17004KT 06/04 A3005 RMK A01 T00560044  RH  093%=      5-min Rain = 0
KTH1 180601Z 16005KT 06/05 A3005 RMK A01 T00560045  RH  092%=      5-min Rain = 0
KTH1 180602Z 16005KT 06/05 A3005 RMK A01 T00570045  RH  092%=      5-min Rain = 0
KTH1 180603Z 17004KT 06/05 A3005 RMK A01 T00570046  RH  092%=      5-min Rain = 0
KTH1 180604Z 16004KT 06/05 A3005 RMK A01 T00580045  RH  092%=      5-min Rain = 0
KTH1 180605Z 16004KT 06/05 A3005 RMK A01 T00580045  RH  092%=      5-min Rain = 0
KTH1 180606Z 16004KT 06/05 A3006 RMK A01 T00580045  RH  092%=      5-min Rain = 0
KTH1 180607Z 18005KT 06/05 A3006 RMK A01 T00580045  RH  092%=      5-min Rain = 0
KTH1 180608Z 17005KT 06/05 A3006 RMK A01 T00580045  RH  092%=      5-min Rain = 0
KTH1 180609Z 18004KT 06/05 A3006 RMK A01 T00580045  RH  092%=      5-min Rain = 0
KTH1 180610Z 17004KT 06/05 A3006 RMK A01 T00580046  RH  092%=      5-min Rain = 0
KTH1 180611Z 17003KT 06/05 A3006 RMK A01 T00580046  RH  092%=      5-min Rain = 0
KTH1 180612Z 16003KT 06/05 A3006 RMK A01 T00580046  RH  092%=      5-min Rain = 0
KTH1 180613Z 15003KT 06/05 A3005 RMK A01 T00580045  RH  092%=      5-min Rain = 0
KTH1 180614Z 15003KT 06/05 A3005 RMK A01 T00580045  RH  092%=      5-min Rain = 0
KTH1 180615Z 15003KT 06/05 A3005 RMK A01 T00580046  RH  092%=      5-min Rain = 0
KTH1 180616Z 16003KT 06/05 A3005 RMK A01 T00580046  RH  092%=      5-min Rain = 0
KTH1 180617Z 16003KT 06/05 A3005 RMK A01 T00580046  RH  092%=      5-min Rain = 0
KTH1 180618Z 14003KT 06/05 A3005 RMK A01 T00580046  RH  092%=      5-min Rain = 0
KTH1 180619Z 14003KT 06/05 A3005 RMK A01 T00580046  RH  092%=      5-min Rain = 0
KTH1 180620Z 14003KT 06/05 A3005 RMK A01 T00580046  RH  092%=      5-min Rain = 0
KTH1 180621Z 14003KT 06/05 A3005 RMK A01 T00580046  RH  092%=      5-min Rain = 0
KTH1 180622Z 14003KT 06/05 A3005 RMK A01 T00580046  RH  092%=      5-min Rain = 0
KTH1 180623Z 13002KT 06/05 A3005 RMK A01 T00580046  RH  092%=      5-min Rain = 0
KTH1 180624Z 12002KT 06/05 A3005 RMK A01 T00570046  RH  092%=      5-min Rain = 0
KTH1 180625Z 13002KT 06/05 A3005 RMK A01 T00580046  RH  092%=      5-min Rain = 0
KTH1 180626Z 13003KT 06/05 A3005 RMK A01 T00580046  RH  092%=      5-min Rain = 0
KTH1 180627Z 13002KT 06/05 A3005 RMK A01 T00580046  RH  092%=      5-min Rain = 0
KTH1 180628Z 12002KT 06/05 A3005 RMK A01 T00580046  RH  092%=      5-min Rain = 0
KTH1 180629Z 12003KT 06/05 A3005 RMK A01 T00580046  RH  092%=      5-min Rain = 0
KTH1 180630Z 13003KT 06/05 A3005 RMK A01 T00580047  RH  092%=      5-min Rain = 0
KTH1 180631Z 12003KT 06/05 A3005 RMK A01 T00590047  RH  092%=      5-min Rain = 0
KTH1 180632Z 13003KT 06/05 A3005 RMK A01 T00590047  RH  092%=      5-min Rain = 0
KTH1 180633Z 14003KT 06/05 A3005 RMK A01 T00590047  RH  092%=      5-min Rain = 0
KTH1 180634Z 14003KT 06/05 A3005 RMK A01 T00590046  RH  091%=      5-min Rain = 0
KTH1 180635Z 14003KT 06/05 A3005 RMK A01 T00580045  RH  091%=      5-min Rain = 0
KTH1 180636Z 14004KT 06/05 A3005 RMK A01 T00580045  RH  091%=      5-min Rain = 0
KTH1 180637Z 15004KT 06/05 A3005 RMK A01 T00570045  RH  092%=      5-min Rain = 0
KTH1 180638Z 14004KT 06/05 A3005 RMK A01 T00570045  RH  092%=      5-min Rain = 0
KTH1 180639Z 15004KT 06/05 A3005 RMK A01 T00570045  RH  092%=      5-min Rain = 0
KTH1 180640Z 15004KT 06/05 A3004 RMK A01 T00570045  RH  092%=      5-min Rain = 0
KTH1 180641Z 15004KT 06/05 A3004 RMK A01 T00560045  RH  092%=      5-min Rain = 0
KTH1 180642Z 15004KT 06/05 A3004 RMK A01 T00560045  RH  092%=      5-min Rain = 0
KTH1 180643Z 15004KT 06/05 A3004 RMK A01 T00560045  RH  093%=      5-min Rain = 0
KTH1 180644Z 16004KT 06/05 A3004 RMK A01 T00560045  RH  093%=      5-min Rain = 0
KTH1 180645Z 16004KT 06/05 A3004 RMK A01 T00560045  RH  093%=      5-min Rain = 0
KTH1 180646Z 16003KT 06/05 A3004 RMK A01 T00560045  RH  093%=      5-min Rain = 0
KTH1 180647Z 16003KT 06/05 A3004 RMK A01 T00560045  RH  093%=      5-min Rain = 0
KTH1 180648Z 16003KT 06/05 A3004 RMK A01 T00560045  RH  093%=      5-min Rain = 0
KTH1 180649Z 16003KT 06/05 A3004 RMK A01 T00560045  RH  093%=      5-min Rain = 0
KTH1 180650Z 15003KT 06/05 A3004 RMK A01 T00560045  RH  093%=      5-min Rain = 0
KTH1 180651Z 16003KT 06/05 A3004 RMK A01 T00550045  RH  093%=      5-min Rain = 0
KTH1 180652Z 16004KT 06/05 A3004 RMK A01 T00550045  RH  093%=      5-min Rain = 0
KTH1 180653Z 16003KT 06/04 A3004 RMK A01 T00550044  RH  093%=      5-min Rain = 0
KTH1 180654Z 16003KT 06/05 A3004 RMK A01 T00550045  RH  093%=      5-min Rain = 0
KTH1 180655Z 16002KT 06/05 A3004 RMK A01 T00550045  RH  093%=      5-min Rain = 0
KTH1 180656Z 16002KT 05/04 A3004 RMK A01 T00540044  RH  093%=      5-min Rain = 0
KTH1 180657Z 16002KT 05/04 A3004 RMK A01 T00540044  RH  093%=      5-min Rain = 0
KTH1 180658Z 17002KT 06/05 A3004 RMK A01 T00550045  RH  093%=      5-min Rain = 0
KTH1 180659Z 16003KT 05/05 A3004 RMK A01 T00540045  RH  094%=      5-min Rain = 0
KTH1 180700Z 16003KT 05/04 A3004 RMK A01 T00540044  RH  094%=      5-min Rain = 0
KTH1 180701Z 15004KT 05/05 A3003 RMK A01 T00540045  RH  094%=      5-min Rain = 0
KTH1 180702Z 15004KT 05/05 A3003 RMK A01 T00540045  RH  094%=      5-min Rain = 0
KTH1 180703Z 15005KT 05/04 A3003 RMK A01 T00540044  RH  094%=      5-min Rain = 0
KTH1 180704Z 15005KT 05/04 A3003 RMK A01 T00530043  RH  094%=      5-min Rain = 0
KTH1 180705Z 15005KT 05/04 A3003 RMK A01 T00520043  RH  094%=      5-min Rain = 0
KTH1 180706Z 16005KT 05/04 A3003 RMK A01 T00520043  RH  094%=      5-min Rain = 0
KTH1 180707Z 16005KT 05/04 A3004 RMK A01 T00520043  RH  094%=      5-min Rain = 0
KTH1 180708Z 16005KT 05/04 A3003 RMK A01 T00520043  RH  094%=      5-min Rain = 0
KTH1 180709Z 16005KT 05/04 A3003 RMK A01 T00520043  RH  094%=      5-min Rain = 0
KTH1 180710Z 15005KT 05/04 A3003 RMK A01 T00520043  RH  094%=      5-min Rain = 0
KTH1 180711Z 16006KT 05/04 A3003 RMK A01 T00520043  RH  094%=      5-min Rain = 0
KTH1 180712Z 16006KT 05/04 A3003 RMK A01 T00520043  RH  094%=      5-min Rain = 0
KTH1 180713Z 16007KT 05/04 A3003 RMK A01 T00520044  RH  094%=      5-min Rain = 0
KTH1 180714Z 16006KT 05/05 A3003 RMK A01 T00530045  RH  095%=      5-min Rain = 0
KTH1 180715Z 16007KT 05/05 A3003 RMK A01 T00540046  RH  095%=      5-min Rain = 0
KTH1 180716Z 15007KT 05/05 A3003 RMK A01 T00540046  RH  095%=      5-min Rain = 0
KTH1 180717Z 16007KT 06/05 A3003 RMK A01 T00550047  RH  095%=      5-min Rain = 0
KTH1 180718Z 15007KT 06/05 A3003 RMK A01 T00560047  RH  094%=      5-min Rain = 0
KTH1 180719Z 16005KT 06/05 A3002 RMK A01 T00570048  RH  094%=      5-min Rain = 0
KTH1 180720Z 16006KT 06/05 A3003 RMK A01 T00570048  RH  094%=      5-min Rain = 0
KTH1 180721Z 16006KT 06/05 A3003 RMK A01 T00580048  RH  093%=      5-min Rain = 0
KTH1 180722Z 16006KT 06/05 A3003 RMK A01 T00590048  RH  093%=      5-min Rain = 0
KTH1 180723Z 16007KT 06/05 A3002 RMK A01 T00580048  RH  093%=      5-min Rain = 0
KTH1 180724Z 16007KT 06/05 A3002 RMK A01 T00590048  RH  093%=      5-min Rain = 0
KTH1 180725Z 16007KT 06/05 A3002 RMK A01 T00580047  RH  093%=      5-min Rain = 0
KTH1 180726Z 16007KT 06/05 A3002 RMK A01 T00590047  RH  092%=      5-min Rain = 0
KTH1 180727Z 16007KT 06/05 A3002 RMK A01 T00590047  RH  092%=      5-min Rain = 0
KTH1 180728Z 16007KT 06/05 A3002 RMK A01 T00590047  RH  092%=      5-min Rain = 0
KTH1 180729Z 16007KT 06/05 A3002 RMK A01 T00590047  RH  092%=      5-min Rain = 0
KTH1 180730Z 16007KT 06/05 A3002 RMK A01 T00580047  RH  092%=      5-min Rain = 0
KTH1 180731Z 16008KT 06/05 A3002 RMK A01 T00580047  RH  093%=      5-min Rain = 0
KTH1 180732Z 16008KT 06/05 A3002 RMK A01 T00580047  RH  093%=      5-min Rain = 0
KTH1 180733Z 16008KT 06/05 A3002 RMK A01 T00580047  RH  093%=      5-min Rain = 0
KTH1 180734Z 16008KT 06/05 A3002 RMK A01 T00580048  RH  093%=      5-min Rain = 0
KTH1 180735Z 16008KT 06/05 A3002 RMK A01 T00580047  RH  093%=      5-min Rain = 0
KTH1 180736Z 15008KT 06/05 A3002 RMK A01 T00580048  RH  093%=      5-min Rain = 0
KTH1 180737Z 15006KT 06/05 A3001 RMK A01 T00590048  RH  093%=      5-min Rain = 0
KTH1 180738Z 16007KT 06/05 A3001 RMK A01 T00580048  RH  093%=      5-min Rain = 0
KTH1 180739Z 15008KT 06/05 A3001 RMK A01 T00590048  RH  093%=      5-min Rain = 0
KTH1 180740Z 15006KT 06/05 A3001 RMK A01 T00590048  RH  093%=      5-min Rain = 0
KTH1 180741Z 16006KT 06/05 A3001 RMK A01 T00590048  RH  093%=      5-min Rain = 0
KTH1 180742Z 16006KT 06/05 A3001 RMK A01 T00590048  RH  092%=      5-min Rain = 0
KTH1 180743Z 16006KT 06/05 A3001 RMK A01 T00600048  RH  092%=      5-min Rain = 0
KTH1 180744Z 16007KT 06/05 A3001 RMK A01 T00600048  RH  092%=      5-min Rain = 0
KTH1 180745Z 16005KT 06/05 A3001 RMK A01 T00600048  RH  092%=      5-min Rain = 0
KTH1 180746Z 16005KT 06/05 A3001 RMK A01 T00600048  RH  092%=      5-min Rain = 0
KTH1 180747Z 16005KT 06/05 A3001 RMK A01 T00600048  RH  092%=      5-min Rain = 0
KTH1 180748Z 16006KT 06/05 A3001 RMK A01 T00590048  RH  092%=      5-min Rain = 0
KTH1 180749Z 16005KT 06/05 A3001 RMK A01 T00600048  RH  092%=      5-min Rain = 0
KTH1 180750Z 16006KT 06/05 A3001 RMK A01 T00590048  RH  092%=      5-min Rain = 0
KTH1 180751Z 16005KT 06/05 A3001 RMK A01 T00600049  RH  093%=      5-min Rain = 0
KTH1 180752Z 16005KT 06/05 A3001 RMK A01 T00600048  RH  092%=      5-min Rain = 0
KTH1 180753Z 16005KT 06/05 A3001 RMK A01 T00590048  RH  092%=      5-min Rain = 0
KTH1 180754Z 16005KT 06/05 A3001 RMK A01 T00590048  RH  093%=      5-min Rain = 0
KTH1 180755Z 16006KT 06/05 A3001 RMK A01 T00590048  RH  093%=      5-min Rain = 0
KTH1 180756Z 16006KT 06/05 A3001 RMK A01 T00590048  RH  093%=      5-min Rain = 0
KTH1 180757Z 16005KT 06/05 A3001 RMK A01 T00590048  RH  093%=      5-min Rain = 0
KTH1 180758Z 16006KT 06/05 A3001 RMK A01 T00590048  RH  093%=      5-min Rain = 0
KTH1 180759Z 16005KT 06/05 A3001 RMK A01 T00590048  RH  093%=      5-min Rain = 0
KTH1 180800Z 16006KT 06/05 A3001 RMK A01 T00580048  RH  093%=      5-min Rain = 0
KTH1 180801Z 17005KT 06/05 A3001 RMK A01 T00580047  RH  093%=      5-min Rain = 0
KTH1 180802Z 16006KT 06/05 A3001 RMK A01 T00580048  RH  093%=      5-min Rain = 0
KTH1 180803Z 16005KT 06/05 A3001 RMK A01 T00580048  RH  093%=      5-min Rain = 0
KTH1 180804Z 16005KT 06/05 A3001 RMK A01 T00580047  RH  093%=      5-min Rain = 0
KTH1 180805Z 16006KT 06/05 A3001 RMK A01 T00570047  RH  093%=      5-min Rain = 0
KTH1 180806Z 16006KT 06/05 A3001 RMK A01 T00570047  RH  093%=      5-min Rain = 0
KTH1 180807Z 16006KT 06/05 A30 RMK A01 T00570047  RH  093%=      5-min Rain = 0
KTH1 180808Z 16006KT 06/05 A30 RMK A01 T00570047  RH  093%=      5-min Rain = 0
KTH1 180809Z 16006KT 06/05 A30 RMK A01 T00570048  RH  094%=      5-min Rain = 0
KTH1 180810Z 16005KT 06/05 A3001 RMK A01 T00570048  RH  094%=      5-min Rain = 0
KTH1 180811Z 16006KT 06/05 A3001 RMK A01 T00570048  RH  093%=      5-min Rain = 0
KTH1 180812Z 16006KT 06/05 A3001 RMK A01 T00570047  RH  093%=      5-min Rain = 0
KTH1 180813Z 16005KT 06/05 A3001 RMK A01 T00570048  RH  094%=      5-min Rain = 0
KTH1 180814Z 16006KT 06/05 A30 RMK A01 T00580048  RH  094%=      5-min Rain = 0
KTH1 180815Z 16007KT 06/05 A3001 RMK A01 T00580048  RH  093%=      5-min Rain = 0
KTH1 180816Z 16007KT 06/05 A3001 RMK A01 T00580048  RH  093%=      5-min Rain = 0
KTH1 180817Z 16006KT 06/05 A3001 RMK A01 T00590049  RH  093%=      5-min Rain = 0
KTH1 180818Z 17006KT 06/05 A3001 RMK A01 T00590048  RH  093%=      5-min Rain = 0
KTH1 180819Z 16005KT 06/05 A3001 RMK A01 T00590048  RH  093%=      5-min Rain = 0
KTH1 180820Z 16005KT 06/05 A3001 RMK A01 T00590048  RH  093%=      5-min Rain = 0
KTH1 180821Z 16005KT 06/05 A3001 RMK A01 T00590048  RH  093%=      5-min Rain = 0
KTH1 180822Z 17004KT 06/05 A3001 RMK A01 T00590048  RH  093%=      5-min Rain = 0
KTH1 180823Z 16004KT 06/05 A3001 RMK A01 T00590048  RH  093%=      5-min Rain = 0
KTH1 180824Z 17006KT 06/05 A30 RMK A01 T00580048  RH  093%=      5-min Rain = 0
KTH1 180825Z 16006KT 06/05 A30 RMK A01 T00590049  RH  093%=      5-min Rain = 0
KTH1 180826Z 17006KT 06/05 A3001 RMK A01 T00600050  RH  093%=      5-min Rain = 0
KTH1 180827Z 16006KT 06/05 A3001 RMK A01 T00600050  RH  093%=      5-min Rain = 0
KTH1 180828Z 16005KT 06/05 A30 RMK A01 T00610050  RH  093%=      5-min Rain = 0
KTH1 180829Z 16006KT 06/05 A30 RMK A01 T00610050  RH  093%=      5-min Rain = 0
KTH1 180830Z 16007KT 06/05 A30 RMK A01 T00620050  RH  092%=      5-min Rain = 0
KTH1 180831Z 16007KT 06/05 A30 RMK A01 T00620051  RH  092%=      5-min Rain = 0
KTH1 180832Z 16007KT 06/05 A30 RMK A01 T00630052  RH  092%=      5-min Rain = 0
KTH1 180833Z 16006KT 06/05 A30 RMK A01 T00640052  RH  092%=      5-min Rain = 0
KTH1 180834Z 16007KT 06/05 A30 RMK A01 T00640052  RH  092%=      5-min Rain = 0
KTH1 180835Z 16008KT 06/05 A30 RMK A01 T00640052  RH  092%=      5-min Rain = 0
KTH1 180836Z 16008KT 07/05 A30 RMK A01 T00650052  RH  092%=      5-min Rain = 0
KTH1 180837Z 16008KT 07/05 A30 RMK A01 T00650052  RH  092%=      5-min Rain = 0
KTH1 180838Z 16006KT 07/05 A30 RMK A01 T00650052  RH  091%=      5-min Rain = 0
KTH1 180839Z 17007KT 07/05 A30 RMK A01 T00660052  RH  091%=      5-min Rain = 0
KTH1 180840Z 16006KT 07/05 A30 RMK A01 T00650052  RH  091%=      5-min Rain = 0
KTH1 180841Z 17005KT 07/05 A30 RMK A01 T00660052  RH  091%=      5-min Rain = 0
KTH1 180842Z 17007KT 07/05 A30 RMK A01 T00650052  RH  091%=      5-min Rain = 0
KTH1 180843Z 16007KT 07/05 A30 RMK A01 T00650052  RH  091%=      5-min Rain = 0
KTH1 180844Z 17006KT 07/05 A30 RMK A01 T00650051  RH  091%=      5-min Rain = 0
KTH1 180845Z 16006KT 06/05 A30 RMK A01 T00640052  RH  091%=      5-min Rain = 0
KTH1 180846Z 16006KT 06/05 A30 RMK A01 T00640051  RH  092%=      5-min Rain = 0
KTH1 180847Z 16005KT 06/05 A30 RMK A01 T00640051  RH  092%=      5-min Rain = 0
KTH1 180848Z 16005KT 06/05 A2999 RMK A01 T00640051  RH  092%=      5-min Rain = 0
KTH1 180849Z 16006KT 06/05 A2999 RMK A01 T00630051  RH  092%=      5-min Rain = 0
KTH1 180850Z 16006KT 06/05 A2999 RMK A01 T00630051  RH  092%=      5-min Rain = 0
KTH1 180851Z 16006KT 06/05 A2999 RMK A01 T00630051  RH  092%=      5-min Rain = 0
KTH1 180852Z 16007KT 06/05 A2999 RMK A01 T00620050  RH  092%=      5-min Rain = 0
KTH1 180853Z 16006KT 06/05 A2999 RMK A01 T00620050  RH  092%=      5-min Rain = 0
KTH1 180854Z 16006KT 06/05 A2999 RMK A01 T00620051  RH  093%=      5-min Rain = 0
KTH1 180855Z 16005KT 06/05 A2999 RMK A01 T00620051  RH  093%=      5-min Rain = 0
KTH1 180856Z 16005KT 06/05 A2999 RMK A01 T00610050  RH  093%=      5-min Rain = 0
KTH1 180857Z 16004KT 06/05 A2999 RMK A01 T00610050  RH  092%=      5-min Rain = 0
KTH1 180858Z 16005KT 06/05 A2999 RMK A01 T00600049  RH  093%=      5-min Rain = 0
KTH1 180859Z 16004KT 06/05 A2999 RMK A01 T00600049  RH  093%=      5-min Rain = 0
KTH1 180900Z 15004KT 06/05 A2999 RMK A01 T00590049  RH  093%=      5-min Rain = 0
KTH1 180901Z 15004KT 06/05 A2999 RMK A01 T00590049  RH  093%=      5-min Rain = 0
KTH1 180902Z 16004KT 06/05 A2999 RMK A01 T00590049  RH  093%=      5-min Rain = 0
KTH1 180903Z 16004KT 06/05 A2999 RMK A01 T00580048  RH  093%=      5-min Rain = 0
KTH1 180904Z 16004KT 06/05 A2999 RMK A01 T00580048  RH  093%=      5-min Rain = 0
KTH1 180905Z 16004KT 06/05 A2999 RMK A01 T00580048  RH  094%=      5-min Rain = 0
KTH1 180906Z 16003KT 06/05 A2999 RMK A01 T00580048  RH  094%=      5-min Rain = 0
KTH1 180907Z 16004KT 06/05 A2999 RMK A01 T00580048  RH  094%=      5-min Rain = 0
KTH1 180908Z 16005KT 06/05 A2999 RMK A01 T00580048  RH  094%=      5-min Rain = 0
KTH1 180909Z 16004KT 06/05 A2999 RMK A01 T00580049  RH  094%=      5-min Rain = 0
KTH1 180910Z 16006KT 06/05 A2999 RMK A01 T00580048  RH  094%=      5-min Rain = 0
KTH1 180911Z 16006KT 06/05 A2999 RMK A01 T00580049  RH  094%=      5-min Rain = 0
KTH1 180912Z 15006KT 06/05 A2999 RMK A01 T00580049  RH  094%=      5-min Rain = 0
KTH1 180913Z 15005KT 06/05 A2999 RMK A01 T00580049  RH  094%=      5-min Rain = 0
KTH1 180914Z 16005KT 06/05 A2999 RMK A01 T00580049  RH  094%=      5-min Rain = 0
KTH1 180915Z 16006KT 06/05 A2999 RMK A01 T00580049  RH  094%=      5-min Rain = 0
KTH1 180916Z 16006KT 06/05 A2999 RMK A01 T00580049  RH  094%=      5-min Rain = 0
KTH1 180917Z 16006KT 06/05 A2998 RMK A01 T00580049  RH  094%=      5-min Rain = 0
KTH1 180918Z 16007KT 06/05 A2998 RMK A01 T00580049  RH  094%=      5-min Rain = 0
KTH1 180919Z 16007KT 06/05 A2998 RMK A01 T00580049  RH  094%=      5-min Rain = 0
KTH1 180920Z 16008KT 06/05 A2998 RMK A01 T00580049  RH  094%=      5-min Rain = 0
KTH1 180921Z 16007KT 06/05 A2998 RMK A01 T00580050  RH  094%=      5-min Rain = 0
KTH1 180922Z 16007KT 06/05 A2998 RMK A01 T00590050  RH  094%=      5-min Rain = 0
KTH1 180923Z 17007KT 06/05 A2998 RMK A01 T00590050  RH  094%=      5-min Rain = 0
KTH1 180924Z 17008KT 06/05 A2998 RMK A01 T00590050  RH  094%=      5-min Rain = 0
KTH1 180925Z 17007KT 06/05 A2998 RMK A01 T00600050  RH  094%=      5-min Rain = 0
KTH1 180926Z 16007KT 06/05 A2998 RMK A01 T00600051  RH  094%=      5-min Rain = 0
KTH1 180927Z 16007KT 06/05 A2998 RMK A01 T00600051  RH  094%=      5-min Rain = 0
KTH1 180928Z 16008KT 06/05 A2998 RMK A01 T00610051  RH  094%=      5-min Rain = 0
KTH1 180929Z 16008KT 06/05 A2998 RMK A01 T00610051  RH  094%=      5-min Rain = 0
KTH1 180930Z 16007KT 06/05 A2998 RMK A01 T00610051  RH  094%=      5-min Rain = 0
KTH1 180931Z 16007KT 06/05 A2998 RMK A01 T00610052  RH  094%=      5-min Rain = 0
KTH1 180932Z 16007KT 06/05 A2998 RMK A01 T00610051  RH  093%=      5-min Rain = 0
KTH1 180933Z 16008KT 06/05 A2998 RMK A01 T00610051  RH  093%=      5-min Rain = 0
KTH1 180934Z 16008KT 06/05 A2998 RMK A01 T00610052  RH  093%=      5-min Rain = 0
KTH1 180935Z 16009KT 06/05 A2997 RMK A01 T00620052  RH  094%=      5-min Rain = 0
KTH1 180936Z 16010KT 06/05 A2997 RMK A01 T00620053  RH  094%=      5-min Rain = 0
KTH1 180937Z 16008KT 06/05 A2997 RMK A01 T00640054  RH  094%=      5-min Rain = 0
KTH1 180938Z 17008KT 06/05 A2997 RMK A01 T00640054  RH  093%=      5-min Rain = 0
KTH1 180939Z 16009KT 06/05 A2997 RMK A01 T00640054  RH  093%=      5-min Rain = 0
KTH1 180940Z 16009KT 06/05 A2997 RMK A01 T00640054  RH  093%=      5-min Rain = 0
KTH1 180941Z 16008KT 07/05 A2997 RMK A01 T00650054  RH  093%=      5-min Rain = 0
KTH1 180942Z 16008KT 06/05 A2997 RMK A01 T00640054  RH  093%=      5-min Rain = 0
KTH1 180943Z 17008KT 07/05 A2997 RMK A01 T00650054  RH  093%=      5-min Rain = 0
KTH1 180944Z 16006KT 07/05 A2997 RMK A01 T00650054  RH  093%=      5-min Rain = 0
KTH1 180945Z 16007KT 07/05 A2997 RMK A01 T00650054  RH  093%=      5-min Rain = 0
KTH1 180946Z 17006KT 07/05 A2997 RMK A01 T00650054  RH  093%=      5-min Rain = 0
KTH1 180947Z 16007KT 07/05 A2997 RMK A01 T00650054  RH  093%=      5-min Rain = 0
KTH1 180948Z 17006KT 07/05 A2997 RMK A01 T00650054  RH  093%=      5-min Rain = 0
KTH1 180949Z 17006KT 07/05 A2997 RMK A01 T00660054  RH  093%=      5-min Rain = 0
KTH1 180950Z 16006KT 07/05 A2997 RMK A01 T00660054  RH  092%=      5-min Rain = 0
KTH1 180951Z 16006KT 07/06 A2997 RMK A01 T00660055  RH  092%=      5-min Rain = 0
KTH1 180952Z 17007KT 07/05 A2997 RMK A01 T00660054  RH  092%=      5-min Rain = 0
KTH1 180953Z 18005KT 07/06 A2997 RMK A01 T00660055  RH  092%=      5-min Rain = 0
KTH1 180954Z 17007KT 07/06 A2997 RMK A01 T00670055  RH  092%=      5-min Rain = 0
KTH1 180955Z 17006KT 07/06 A2997 RMK A01 T00670056  RH  092%=      5-min Rain = 0
KTH1 180956Z 17006KT 07/06 A2997 RMK A01 T00680056  RH  092%=      5-min Rain = 0
KTH1 180957Z 17007KT 07/06 A2997 RMK A01 T00680056  RH  092%=      5-min Rain = 0
KTH1 180958Z 17008KT 07/06 A2997 RMK A01 T00680056  RH  092%=      5-min Rain = 0
KTH1 180959Z 17008KT 07/06 A2997 RMK A01 T00690056  RH  092%=      5-min Rain = 0
KTH1 181000Z 16008KT 07/06 A2997 RMK A01 T00690057  RH  092%=      5-min Rain = 0
KTH1 181001Z 16007KT 07/06 A2997 RMK A01 T00690056  RH  091%=      5-min Rain = 0
KTH1 181002Z 16007KT 07/06 A2997 RMK A01 T00690056  RH  091%=      5-min Rain = 0
KTH1 181003Z 16007KT 07/06 A2997 RMK A01 T00690056  RH  091%=      5-min Rain = 0
KTH1 181004Z 16008KT 07/06 A2997 RMK A01 T00690056  RH  091%=      5-min Rain = 0
KTH1 181005Z 16006KT 07/06 A2997 RMK A01 T00690056  RH  091%=      5-min Rain = 0
KTH1 181006Z 16008KT 07/06 A2997 RMK A01 T00690056  RH  091%=      5-min Rain = 0
KTH1 181007Z 16008KT 07/06 A2997 RMK A01 T00690056  RH  091%=      5-min Rain = 0
KTH1 181008Z 16008KT 07/06 A2997 RMK A01 T00680056  RH  092%=      5-min Rain = 0
KTH1 181009Z 16007KT 07/06 A2997 RMK A01 T00680055  RH  092%=      5-min Rain = 0
KTH1 181010Z 15007KT 07/06 A2997 RMK A01 T00680055  RH  092%=      5-min Rain = 0
KTH1 181011Z 15007KT 07/06 A2997 RMK A01 T00670055  RH  092%=      5-min Rain = 0
KTH1 181012Z 16008KT 07/06 A2997 RMK A01 T00680056  RH  092%=      5-min Rain = 0
KTH1 181013Z 15008KT 07/06 A2997 RMK A01 T00670056  RH  092%=      5-min Rain = 0
KTH1 181014Z 16007KT 07/06 A2997 RMK A01 T00670056  RH  092%=      5-min Rain = 0
KTH1 181015Z 16006KT 07/06 A2997 RMK A01 T00670055  RH  092%=      5-min Rain = 0
KTH1 181016Z 16006KT 07/06 A2997 RMK A01 T00670055  RH  092%=      5-min Rain = 0
KTH1 181017Z 16006KT 07/06 A2996 RMK A01 T00660055  RH  092%=      5-min Rain = 0
KTH1 181018Z 16007KT 07/05 A2996 RMK A01 T00660054  RH  092%=      5-min Rain = 0
KTH1 181019Z 16007KT 07/06 A2996 RMK A01 T00660055  RH  093%=      5-min Rain = 0
KTH1 181020Z 16006KT 07/06 A2996 RMK A01 T00660055  RH  093%=      5-min Rain = 0
KTH1 181021Z 16006KT 07/06 A2996 RMK A01 T00660055  RH  093%=      5-min Rain = 0
KTH1 181022Z 16006KT 07/05 A2996 RMK A01 T00650054  RH  093%=      5-min Rain = 0
KTH1 181023Z 16006KT 07/06 A2996 RMK A01 T00660055  RH  093%=      5-min Rain = 0
KTH1 181024Z 16006KT 07/06 A2996 RMK A01 T00660055  RH  093%=      5-min Rain = 0
KTH1 181025Z 16006KT 07/06 A2996 RMK A01 T00650055  RH  093%=      5-min Rain = 0
KTH1 181026Z 16006KT 07/05 A2996 RMK A01 T00650054  RH  093%=      5-min Rain = 0
KTH1 181027Z 16006KT 07/05 A2996 RMK A01 T00650054  RH  093%=      5-min Rain = 0
KTH1 181028Z 16006KT 06/05 A2996 RMK A01 T00640054  RH  093%=      5-min Rain = 0
KTH1 181029Z 16007KT 07/06 A2996 RMK A01 T00650055  RH  093%=      5-min Rain = 0
KTH1 181030Z 15006KT 07/06 A2996 RMK A01 T00650055  RH  093%=      5-min Rain = 0
KTH1 181031Z 16006KT 07/06 A2996 RMK A01 T00650055  RH  093%=      5-min Rain = 0
KTH1 181032Z 16006KT 06/05 A2996 RMK A01 T00640054  RH  093%=      5-min Rain = 0
KTH1 181033Z 16006KT 06/05 A2996 RMK A01 T00640054  RH  093%=      5-min Rain = 0
KTH1 181034Z 17006KT 06/05 A2996 RMK A01 T00640054  RH  093%=      5-min Rain = 0
KTH1 181035Z 16005KT 06/05 A2996 RMK A01 T00640054  RH  094%=      5-min Rain = 0
KTH1 181036Z 16005KT 06/06 A2996 RMK A01 T00640055  RH  094%=      5-min Rain = 0
KTH1 181037Z 16005KT 06/06 A2996 RMK A01 T00640055  RH  094%=      5-min Rain = 0
KTH1 181038Z 16005KT 06/05 A2995 RMK A01 T00640054  RH  094%=      5-min Rain = 0
KTH1 181039Z 15006KT 06/05 A2995 RMK A01 T00640054  RH  094%=      5-min Rain = 0
KTH1 181040Z 16006KT 06/05 A2995 RMK A01 T00640054  RH  094%=      5-min Rain = 0
KTH1 181041Z 15006KT 06/05 A2995 RMK A01 T00640054  RH  094%=      5-min Rain = 0
KTH1 181042Z 16007KT 06/06 A2995 RMK A01 T00640055  RH  094%=      5-min Rain = 0
KTH1 181043Z 16007KT 06/05 A2995 RMK A01 T00640054  RH  094%=      5-min Rain = 0
KTH1 181044Z 16008KT 06/06 A2995 RMK A01 T00640055  RH  094%=      5-min Rain = 0
KTH1 181045Z 16007KT 06/06 A2994 RMK A01 T00640055  RH  094%=      5-min Rain = 0
KTH1 181046Z 16007KT 06/06 A2994 RMK A01 T00640055  RH  094%=      5-min Rain = 0
KTH1 181047Z 15007KT 06/06 A2994 RMK A01 T00640055  RH  094%=      5-min Rain = 0
KTH1 181048Z 15007KT 06/06 A2994 RMK A01 T00640055  RH  094%=      5-min Rain = 0
KTH1 181049Z 16008KT 06/06 A2994 RMK A01 T00640055  RH  094%=      5-min Rain = 0
KTH1 181050Z 16008KT 06/06 A2994 RMK A01 T00640055  RH  094%=      5-min Rain = 0
KTH1 181051Z 16008KT 06/06 A2994 RMK A01 T00640056  RH  094%=      5-min Rain = 0
KTH1 181052Z 16008KT 06/06 A2994 RMK A01 T00640055  RH  094%=      5-min Rain = 0
KTH1 181053Z 16008KT 06/06 A2994 RMK A01 T00640055  RH  094%=      5-min Rain = 0
KTH1 181054Z 16008KT 06/06 A2993 RMK A01 T00640056  RH  094%=      5-min Rain = 0
KTH1 181055Z 16009KT 06/06 A2993 RMK A01 T00640055  RH  094%=      5-min Rain = 0
KTH1 181056Z 15008KT 06/06 A2993 RMK A01 T00640055  RH  094%=      5-min Rain = 0
KTH1 181057Z 16009KT 06/06 A2993 RMK A01 T00640055  RH  094%=      5-min Rain = 0
KTH1 181058Z 16008KT 06/06 A2993 RMK A01 T00640055  RH  094%=      5-min Rain = 0
KTH1 181059Z 16007KT 06/06 A2993 RMK A01 T00640056  RH  094%=      5-min Rain = 0
KTH1 181100Z 16009KT 07/06 A2993 RMK A01 T00650056  RH  094%=      5-min Rain = 0
KTH1 181101Z 16009KT 07/06 A2993 RMK A01 T00650057  RH  094%=      5-min Rain = 0
KTH1 181102Z 16009KT 07/06 A2993 RMK A01 T00660057  RH  094%=      5-min Rain = 0
KTH1 181103Z 16008KT 07/06 A2993 RMK A01 T00660057  RH  094%=      5-min Rain = 0
KTH1 181104Z 17007KT 07/06 A2993 RMK A01 T00660057  RH  094%=      5-min Rain = 0
KTH1 181105Z 17006KT 07/06 A2993 RMK A01 T00670057  RH  094%=      5-min Rain = 0
KTH1 181106Z 16008KT 07/06 A2993 RMK A01 T00660057  RH  094%=      5-min Rain = 0
KTH1 181107Z 17009KT 07/06 A2993 RMK A01 T00660057  RH  094%=      5-min Rain = 0
KTH1 181108Z 16009KT 07/06 A2993 RMK A01 T00660057  RH  094%=      5-min Rain = 0
KTH1 181109Z 17007KT 07/06 A2993 RMK A01 T00660057  RH  094%=      5-min Rain = 0
KTH1 181110Z 17008KT 07/06 A2993 RMK A01 T00660057  RH  094%=      5-min Rain = 0
KTH1 181111Z 17007KT 07/06 A2993 RMK A01 T00660056  RH  094%=      5-min Rain = 0
KTH1 181112Z 17008KT 07/06 A2993 RMK A01 T00660056  RH  094%=      5-min Rain = 0
KTH1 181113Z 17008KT 07/06 A2992 RMK A01 T00660057  RH  094%=      5-min Rain = 0
KTH1 181114Z 17007KT 07/06 A2992 RMK A01 T00660057  RH  094%=      5-min Rain = 0
KTH1 181115Z 17008G13KT 07/06 A2992 RMK A01 T00660056  RH  093%=      5-min Rain = 0
KTH1 181116Z 17008KT 07/06 A2992 RMK A01 T00660056  RH  093%=      5-min Rain = 0
KTH1 181117Z 17008KT 07/06 A2992 RMK A01 T00660056  RH  093%=      5-min Rain = 0
KTH1 181118Z 17008KT 07/06 A2992 RMK A01 T00660057  RH  094%=      5-min Rain = 0
KTH1 181119Z 17008KT 07/06 A2992 RMK A01 T00670057  RH  093%=      5-min Rain = 0
KTH1 181120Z 17009KT 07/06 A2992 RMK A01 T00670057  RH  093%=      5-min Rain = 0
KTH1 181121Z 17008KT 07/06 A2992 RMK A01 T00670057  RH  093%=      5-min Rain = 0
KTH1 181122Z 17009KT 07/06 A2992 RMK A01 T00670057  RH  093%=      5-min Rain = 0
KTH1 181123Z 17009KT 07/06 A2992 RMK A01 T00670058  RH  093%=      5-min Rain = 0
KTH1 181124Z 17010KT 07/06 A2991 RMK A01 T00680058  RH  093%=      5-min Rain = 0
KTH1 181125Z 17009KT 07/06 A2991 RMK A01 T00690058  RH  093%=      5-min Rain = 0
KTH1 181126Z 17010KT 07/06 A2991 RMK A01 T00690058  RH  093%=      5-min Rain = 0
KTH1 181127Z 17010KT 07/06 A2991 RMK A01 T00690058  RH  093%=      5-min Rain = 0
KTH1 181128Z 17010KT 07/06 A2991 RMK A01 T00700059  RH  092%=      5-min Rain = 0
KTH1 181129Z 17009KT 07/06 A2991 RMK A01 T00710059  RH  092%=      5-min Rain = 0
KTH1 181130Z 17009KT 07/06 A2991 RMK A01 T00710058  RH  092%=      5-min Rain = 0
KTH1 181131Z 17010KT 07/06 A2991 RMK A01 T00710058  RH  092%=      5-min Rain = 0
KTH1 181132Z 17011KT 07/06 A2991 RMK A01 T00710058  RH  092%=      5-min Rain = 0
KTH1 181133Z 17009KT 07/06 A299 RMK A01 T00720059  RH  092%=      5-min Rain = 0
KTH1 181134Z 17011KT 07/06 A299 RMK A01 T00720059  RH  091%=      5-min Rain = 0
KTH1 181135Z 17010KT 07/06 A299 RMK A01 T00720059  RH  091%=      5-min Rain = 0
KTH1 181136Z 17010KT 07/06 A299 RMK A01 T00720059  RH  091%=      5-min Rain = 0
KTH1 181137Z 17010G15KT 07/06 A299 RMK A01 T00720059  RH  091%=      5-min Rain = 0
KTH1 181138Z 17012KT 07/06 A299 RMK A01 T00720059  RH  092%=      5-min Rain = 0
KTH1 181139Z 16011G16KT 07/06 A299 RMK A01 T00720059  RH  091%=      5-min Rain = 0
KTH1 181140Z 17010KT 07/06 A2989 RMK A01 T00730059  RH  091%=      5-min Rain = 0
KTH1 181141Z 17010KT 07/06 A2989 RMK A01 T00730059  RH  091%=      5-min Rain = 0
KTH1 181142Z 17011G18KT 07/06 A2989 RMK A01 T00730059  RH  091%=      5-min Rain = 0
KTH1 181143Z 16011KT 07/06 A2989 RMK A01 T00730059  RH  091%=      5-min Rain = 0
KTH1 181144Z 17011KT 07/06 A2989 RMK A01 T00730060  RH  091%=      5-min Rain = 0
KTH1 181145Z 17010KT 07/06 A2989 RMK A01 T00730060  RH  091%=      5-min Rain = 0
KTH1 181146Z 17012KT 07/06 A2989 RMK A01 T00730059  RH  091%=      5-min Rain = 0
KTH1 181147Z 17011KT 07/06 A2989 RMK A01 T00730059  RH  091%=      5-min Rain = 0
KTH1 181148Z 16011G16KT 07/06 A2989 RMK A01 T00730059  RH  091%=      5-min Rain = 0
KTH1 181149Z 17012G18KT 07/06 A2989 RMK A01 T00730059  RH  091%=      5-min Rain = 0
KTH1 181150Z 17013KT 07/06 A2989 RMK A01 T00730059  RH  091%=      5-min Rain = 0
KTH1 181151Z 16010KT 07/06 A2988 RMK A01 T00730059  RH  091%=      5-min Rain = 0
KTH1 181152Z 17009KT 07/06 A2988 RMK A01 T00720059  RH  091%=      5-min Rain = 0
KTH1 181153Z 17010KT 07/06 A2988 RMK A01 T00720058  RH  091%=      5-min Rain = 0
KTH1 181154Z 17010KT 07/06 A2988 RMK A01 T00710058  RH  091%=      5-min Rain = 0
KTH1 181155Z 16008KT 07/06 A2988 RMK A01 T00700058  RH  092%=      5-min Rain = 0
KTH1 181156Z 17010KT 07/06 A2988 RMK A01 T00700058  RH  092%=      5-min Rain = 0
KTH1 181157Z 17011G16KT 07/06 A2988 RMK A01 T00700058  RH  092%=      5-min Rain = 0
KTH1 181158Z 17009KT 07/06 A2988 RMK A01 T00700058  RH  092%=      5-min Rain = 0
KTH1 181159Z 17009KT 07/06 A2988 RMK A01 T00700058  RH  092%=      5-min Rain = 0
KTH1 181200Z 17008KT 07/06 A2988 RMK A01 T00700058  RH  092%=      5-min Rain = 0
KTH1 181201Z 17006KT 07/06 A2988 RMK A01 T00690058  RH  092%=      5-min Rain = 0
KTH1 181202Z 17008KT 07/06 A2988 RMK A01 T00690058  RH  092%=      5-min Rain = 0
KTH1 181203Z 17009KT 07/06 A2988 RMK A01 T00690058  RH  093%=      5-min Rain = 0
KTH1 181204Z 17007KT 07/06 A2989 RMK A01 T00690058  RH  093%=      5-min Rain = 0
KTH1 181205Z 17009KT 07/06 A2989 RMK A01 T00690058  RH  093%=      5-min Rain = 0
KTH1 181206Z 18009G14KT 07/06 A2989 RMK A01 T00700059  RH  093%=      5-min Rain = 0
KTH1 181207Z 17009KT 07/06 A2989 RMK A01 T00700059  RH  093%=      5-min Rain = 0
KTH1 181208Z 17010KT 07/06 A2989 RMK A01 T00700059  RH  092%=      5-min Rain = 0
KTH1 181209Z 17008KT 07/06 A2989 RMK A01 T00710059  RH  092%=      5-min Rain = 0
KTH1 181210Z 17009KT 07/06 A2989 RMK A01 T00710059  RH  092%=      5-min Rain = 0
KTH1 181211Z 17010KT 07/06 A2989 RMK A01 T00710059  RH  092%=      5-min Rain = 0
KTH1 181212Z 18007KT 07/06 A2989 RMK A01 T00710059  RH  092%=      5-min Rain = 0
KTH1 181213Z 17006KT 07/06 A2989 RMK A01 T00710059  RH  092%=      5-min Rain = 0
KTH1 181214Z 18009KT 07/06 A2989 RMK A01 T00710059  RH  092%=      5-min Rain = 0
KTH1 181215Z 17008KT 07/06 A2989 RMK A01 T00710059  RH  092%=      5-min Rain = 0
KTH1 181216Z 18010KT 07/06 A2989 RMK A01 T00710059  RH  092%=      5-min Rain = 0
KTH1 181217Z 18010G15KT 07/06 A2989 RMK A01 T00710059  RH  092%=      5-min Rain = 0
KTH1 181218Z 17010KT 07/06 A2989 RMK A01 T00710060  RH  092%=      5-min Rain = 0
KTH1 181219Z 19009KT 07/06 A2989 RMK A01 T00720060  RH  092%=      5-min Rain = 0
KTH1 181220Z 17011KT 07/06 A2989 RMK A01 T00720060  RH  092%=      5-min Rain = 0
KTH1 181221Z 18009KT 07/06 A2989 RMK A01 T00720060  RH  092%=      5-min Rain = 0
KTH1 181222Z 17009KT 07/06 A2989 RMK A01 T00720059  RH  091%=      5-min Rain = 0
KTH1 181223Z 18009KT 07/06 A2989 RMK A01 T00720059  RH  091%=      5-min Rain = 0
KTH1 181224Z 18008KT 07/06 A2989 RMK A01 T00720059  RH  091%=      5-min Rain = 0
KTH1 181225Z 18009KT 07/06 A2989 RMK A01 T00720059  RH  092%=      5-min Rain = 0
KTH1 181226Z 18009KT 07/06 A2989 RMK A01 T00720059  RH  092%=      5-min Rain = 0
KTH1 181227Z 18008KT 07/06 A2989 RMK A01 T00720059  RH  092%=      5-min Rain = 0
KTH1 181228Z 18009KT 07/06 A2989 RMK A01 T00710059  RH  092%=      5-min Rain = 0
KTH1 181229Z 18010G15KT 07/06 A2988 RMK A01 T00710059  RH  092%=      5-min Rain = 0
KTH1 181230Z 17010KT 07/06 A2988 RMK A01 T00710059  RH  092%=      5-min Rain = 0
KTH1 181231Z 17009G14KT 07/06 A2988 RMK A01 T00710059  RH  092%=      5-min Rain = 0
KTH1 181232Z 18009KT 07/06 A2988 RMK A01 T00700058  RH  092%=      5-min Rain = 0
KTH1 181233Z 18010KT 07/06 A2988 RMK A01 T00700058  RH  092%=      5-min Rain = 0
KTH1 181234Z 18009KT 07/06 A2988 RMK A01 T00700058  RH  092%=      5-min Rain = 0
KTH1 181235Z 18009KT 07/06 A2988 RMK A01 T00700058  RH  092%=      5-min Rain = 0
KTH1 181236Z 18009KT 07/06 A2988 RMK A01 T00690058  RH  092%=      5-min Rain = 0
KTH1 181237Z 17010KT 07/06 A2988 RMK A01 T00690058  RH  093%=      5-min Rain = 0
KTH1 181238Z 17010KT 07/06 A2988 RMK A01 T00690058  RH  093%=      5-min Rain = 0
KTH1 181239Z 17009KT 07/06 A2988 RMK A01 T00690058  RH  093%=      5-min Rain = 0
KTH1 181240Z 17011KT 07/06 A2988 RMK A01 T00690058  RH  093%=      5-min Rain = 0
KTH1 181241Z 17010KT 07/06 A2988 RMK A01 T00690058  RH  093%=      5-min Rain = 0
KTH1 181242Z 17010KT 07/06 A2988 RMK A01 T00690058  RH  093%=      5-min Rain = 0
KTH1 181243Z 17009KT 07/06 A2988 RMK A01 T00690058  RH  093%=      5-min Rain = 0
KTH1 181244Z 17009KT 07/06 A2988 RMK A01 T00680058  RH  093%=      5-min Rain = 0
KTH1 181245Z 17008KT 07/06 A2988 RMK A01 T00680058  RH  093%=      5-min Rain = 0
KTH1 181246Z 17008KT 07/06 A2988 RMK A01 T00680058  RH  093%=      5-min Rain = 0
KTH1 181247Z 17008KT 07/06 A2988 RMK A01 T00680057  RH  093%=      5-min Rain = 0
KTH1 181248Z 18007KT 07/06 A2988 RMK A01 T00680058  RH  093%=      5-min Rain = 0
KTH1 181249Z 18010KT 07/06 A2988 RMK A01 T00670057  RH  093%=      5-min Rain = 0
KTH1 181250Z 17009KT 07/06 A2988 RMK A01 T00670057  RH  093%=      5-min Rain = 0
KTH1 181251Z 18007KT 07/06 A2988 RMK A01 T00670057  RH  093%=      5-min Rain = 0
KTH1 181252Z 18007KT 07/06 A2988 RMK A01 T00670057  RH  093%=      5-min Rain = 0
KTH1 181253Z 18008KT 07/06 A2988 RMK A01 T00670057  RH  094%=      5-min Rain = 0
KTH1 181254Z 18007KT 07/06 A2988 RMK A01 T00660057  RH  094%=      5-min Rain = 0
KTH1 181255Z 18009G14KT 07/06 A2988 RMK A01 T00660057  RH  094%=      5-min Rain = 0
KTH1 181256Z 18008KT 07/06 A2988 RMK A01 T00660056  RH  094%=      5-min Rain = 0
KTH1 181257Z 18008KT 07/06 A2988 RMK A01 T00660057  RH  094%=      5-min Rain = 0
KTH1 181258Z 17008KT 07/06 A2988 RMK A01 T00660057  RH  094%=      5-min Rain = 0
KTH1 181259Z 18007KT 07/06 A2988 RMK A01 T00660057  RH  094%=      5-min Rain = 0
KTH1 181300Z 18008KT 07/06 A2988 RMK A01 T00660057  RH  094%=      5-min Rain = 0
KTH1 181301Z 18009KT 07/06 A2988 RMK A01 T00660057  RH  094%=      5-min Rain = 0
KTH1 181302Z 18009KT 07/06 A2988 RMK A01 T00650056  RH  094%=      5-min Rain = 0
KTH1 181303Z 18008KT 07/06 A2988 RMK A01 T00650057  RH  094%=      5-min Rain = 0
KTH1 181304Z 18009KT 07/06 A2988 RMK A01 T00650056  RH  094%=      5-min Rain = 0
KTH1 181305Z 18008KT 07/06 A2988 RMK A01 T00650057  RH  094%=      5-min Rain = 0
KTH1 181306Z 18008KT 07/06 A2988 RMK A01 T00660057  RH  094%=      5-min Rain = 0
KTH1 181307Z 18009KT 07/06 A2988 RMK A01 T00650056  RH  094%=      5-min Rain = 0
KTH1 181308Z 18008KT 07/06 A2988 RMK A01 T00650057  RH  094%=      5-min Rain = 0
KTH1 181309Z 18006KT 07/06 A2988 RMK A01 T00650056  RH  094%=      5-min Rain = 0
KTH1 181310Z 18007KT 07/06 A2988 RMK A01 T00660057  RH  094%=      5-min Rain = 0
KTH1 181311Z 19007KT 07/06 A2988 RMK A01 T00660057  RH  094%=      5-min Rain = 0
KTH1 181312Z 18008KT 07/06 A2988 RMK A01 T00650056  RH  094%=      5-min Rain = 0
KTH1 181313Z 19006KT 07/06 A2988 RMK A01 T00650056  RH  094%=      5-min Rain = 0
KTH1 181314Z 19007KT 07/06 A2988 RMK A01 T00650056  RH  094%=      5-min Rain = 0
KTH1 181315Z 19005KT 07/06 A2988 RMK A01 T00650056  RH  094%=      5-min Rain = 0
KTH1 181316Z 19006KT 06/06 A2988 RMK A01 T00640056  RH  094%=      5-min Rain = 0
KTH1 181317Z 19007KT 06/06 A2988 RMK A01 T00640056  RH  094%=      5-min Rain = 0
KTH1 181318Z 18006KT 06/06 A2988 RMK A01 T00640056  RH  094%=      5-min Rain = 0
KTH1 181319Z 19008KT 06/06 A2988 RMK A01 T00640056  RH  094%=      5-min Rain = 0
KTH1 181320Z 18007KT 06/06 A2988 RMK A01 T00640056  RH  095%=      5-min Rain = 0
KTH1 181321Z 18007KT 06/06 A2988 RMK A01 T00640056  RH  095%=      5-min Rain = 0
KTH1 181322Z 19006KT 06/06 A2988 RMK A01 T00640056  RH  095%=      5-min Rain = 0
KTH1 181323Z 18007KT 06/06 A2988 RMK A01 T00640056  RH  095%=      5-min Rain = 0
KTH1 181324Z 19007KT 06/06 A2988 RMK A01 T00640056  RH  095%=      5-min Rain = 0
KTH1 181325Z 18007KT 06/06 A2988 RMK A01 T00640056  RH  095%=      5-min Rain = 0
KTH1 181326Z 19006KT 06/06 A2988 RMK A01 T00640056  RH  095%=      5-min Rain = 0
KTH1 181327Z 19008KT 06/06 A2988 RMK A01 T00640057  RH  095%=      5-min Rain = 0
KTH1 181328Z 19006KT 07/06 A2988 RMK A01 T00650057  RH  095%=      5-min Rain = 0
KTH1 181329Z 19007KT 07/06 A2988 RMK A01 T00650057  RH  095%=      5-min Rain = 0
KTH1 181330Z 19007KT 07/06 A2988 RMK A01 T00650057  RH  095%=      5-min Rain = 0
KTH1 181331Z 19007KT 07/06 A2988 RMK A01 T00660058  RH  094%=      5-min Rain = 0
KTH1 181332Z 19008KT 07/06 A2988 RMK A01 T00660057  RH  094%=      5-min Rain = 0
KTH1 181333Z 19008KT 07/06 A2987 RMK A01 T00660057  RH  094%=      5-min Rain = 0
KTH1 181334Z 18007KT 07/06 A2987 RMK A01 T00660057  RH  094%=      5-min Rain = 0
KTH1 181335Z 19008KT 07/06 A2987 RMK A01 T00660057  RH  094%=      5-min Rain = 0
KTH1 181336Z 19007KT 07/06 A2987 RMK A01 T00660058  RH  094%=      5-min Rain = 0
KTH1 181337Z 19007KT 07/06 A2987 RMK A01 T00660058  RH  094%=      5-min Rain = 0
KTH1 181338Z 19008KT 07/06 A2987 RMK A01 T00660058  RH  094%=      5-min Rain = 0
KTH1 181339Z 18008KT 07/06 A2987 RMK A01 T00660058  RH  094%=      5-min Rain = 0
KTH1 181340Z 19008KT 07/06 A2987 RMK A01 T00670058  RH  094%=      5-min Rain = 0
KTH1 181341Z 19007KT 07/06 A2987 RMK A01 T00670058  RH  094%=      5-min Rain = 0
KTH1 181342Z 18008KT 07/06 A2987 RMK A01 T00670058  RH  094%=      5-min Rain = 0
KTH1 181343Z 18008KT 07/06 A2987 RMK A01 T00670058  RH  094%=      5-min Rain = 0
KTH1 181344Z 18008KT 07/06 A2987 RMK A01 T00670058  RH  094%=      5-min Rain = 0
KTH1 181345Z 18006KT 07/06 A2987 RMK A01 T00670059  RH  094%=      5-min Rain = 0
KTH1 181346Z 18009KT 07/06 A2986 RMK A01 T00670058  RH  094%=      5-min Rain = 0
KTH1 181347Z 18008KT 07/06 A2986 RMK A01 T00670058  RH  094%=      5-min Rain = 0
KTH1 181348Z 17009KT 07/06 A2986 RMK A01 T00670058  RH  094%=      5-min Rain = 0
KTH1 181349Z 18010KT 07/06 A2986 RMK A01 T00670058  RH  094%=      5-min Rain = 0
KTH1 181350Z 18010KT 07/06 A2986 RMK A01 T00680058  RH  094%=      5-min Rain = 0
KTH1 181351Z 17008KT 07/06 A2986 RMK A01 T00680059  RH  094%=      5-min Rain = 0
KTH1 181352Z 18009KT 07/06 A2986 RMK A01 T00680058  RH  094%=      5-min Rain = 0
KTH1 181353Z 18011KT 07/06 A2986 RMK A01 T00680059  RH  094%=      5-min Rain = 0
KTH1 181354Z 18009KT 07/06 A2986 RMK A01 T00690059  RH  094%=      5-min Rain = 0
KTH1 181355Z 18010KT 07/06 A2986 RMK A01 T00690059  RH  094%=      5-min Rain = 0
KTH1 181356Z 18009KT 07/06 A2986 RMK A01 T00690059  RH  093%=      5-min Rain = 0
KTH1 181357Z 18009KT 07/06 A2986 RMK A01 T00690058  RH  093%=      5-min Rain = 0
KTH1 181358Z 18008KT 07/06 A2986 RMK A01 T00690059  RH  093%=      5-min Rain = 0
KTH1 181359Z 18008KT 07/06 A2986 RMK A01 T00690059  RH  093%=      5-min Rain = 0
KTH1 181400Z 18010KT 07/06 A2986 RMK A01 T00690059  RH  093%=      5-min Rain = 0
KTH1 181401Z 18010KT 07/06 A2986 RMK A01 T00680059  RH  093%=      5-min Rain = 0
KTH1 181402Z 18009KT 07/06 A2986 RMK A01 T00690059  RH  093%=      5-min Rain = 0
KTH1 181403Z 18010G15KT 07/06 A2986 RMK A01 T00690059  RH  093%=      5-min Rain = 0
KTH1 181404Z 18009KT 07/06 A2986 RMK A01 T00690059  RH  093%=      5-min Rain = 0
KTH1 181405Z 17009KT 07/06 A2986 RMK A01 T00690059  RH  093%=      5-min Rain = 0
KTH1 181406Z 18008KT 07/06 A2986 RMK A01 T00690059  RH  093%=      5-min Rain = 0
KTH1 181407Z 18009KT 07/06 A2986 RMK A01 T00690059  RH  093%=      5-min Rain = 0
KTH1 181408Z 18010KT 07/06 A2986 RMK A01 T00690059  RH  093%=      5-min Rain = 0
KTH1 181409Z 18009KT 07/06 A2986 RMK A01 T00690059  RH  093%=      5-min Rain = 0
KTH1 181410Z 18009KT 07/06 A2985 RMK A01 T00690059  RH  093%=      5-min Rain = 0
KTH1 181411Z 17010KT 07/06 A2985 RMK A01 T00690059  RH  093%=      5-min Rain = 0
KTH1 181412Z 18010KT 07/06 A2985 RMK A01 T00690059  RH  093%=      5-min Rain = 0
KTH1 181413Z 17010KT 07/06 A2985 RMK A01 T00690059  RH  093%=      5-min Rain = 0
KTH1 181414Z 17010KT 07/06 A2985 RMK A01 T00700060  RH  093%=      5-min Rain = 0
KTH1 181415Z 18009KT 07/06 A2985 RMK A01 T00700059  RH  093%=      5-min Rain = 0
KTH1 181416Z 17009G14KT 07/06 A2985 RMK A01 T00700060  RH  093%=      5-min Rain = 0
KTH1 181417Z 18008G13KT 07/06 A2985 RMK A01 T00710060  RH  093%=      5-min Rain = 0
KTH1 181418Z 18008KT 07/06 A2985 RMK A01 T00710060  RH  093%=      5-min Rain = 0
KTH1 181419Z 18008KT 07/06 A2985 RMK A01 T00710060  RH  092%=      5-min Rain = 0
KTH1 181420Z 18010KT 07/06 A2985 RMK A01 T00710060  RH  092%=      5-min Rain = 0
KTH1 181421Z 18008KT 07/06 A2985 RMK A01 T00720060  RH  092%=      5-min Rain = 0
KTH1 181422Z 18008KT 07/06 A2985 RMK A01 T00720060  RH  092%=      5-min Rain = 0
KTH1 181423Z 18009KT 07/06 A2985 RMK A01 T00730060  RH  092%=      5-min Rain = 0
KTH1 181424Z 18007KT 07/06 A2985 RMK A01 T00720060  RH  092%=      5-min Rain = 0
KTH1 181425Z 18011KT 07/06 A2985 RMK A01 T00720060  RH  092%=      5-min Rain = 0
KTH1 181426Z 18008KT 07/06 A2985 RMK A01 T00730060  RH  092%=      5-min Rain = 0
KTH1 181427Z 19009KT 07/06 A2985 RMK A01 T00740061  RH  091%=      5-min Rain = 0
KTH1 181428Z 19008KT 08/06 A2985 RMK A01 T00750061  RH  091%=      5-min Rain = 0
KTH1 181429Z 18009KT 08/06 A2985 RMK A01 T00760061  RH  091%=      5-min Rain = 0
KTH1 181430Z 19008KT 08/06 A2985 RMK A01 T00760062  RH  090%=      5-min Rain = 0
KTH1 181431Z 19010KT 08/06 A2985 RMK A01 T00770062  RH  090%=      5-min Rain = 0
KTH1 181432Z 19008KT 08/06 A2985 RMK A01 T00780062  RH  089%=      5-min Rain = 0
KTH1 181433Z 19008KT 08/06 A2985 RMK A01 T00780062  RH  089%=      5-min Rain = 0
KTH1 181434Z 19010KT 08/06 A2985 RMK A01 T00790062  RH  089%=      5-min Rain = 0
KTH1 181435Z 19009KT 08/06 A2985 RMK A01 T00790062  RH  089%=      5-min Rain = 0
KTH1 181436Z 19008KT 08/06 A2985 RMK A01 T00800062  RH  089%=      5-min Rain = 0
KTH1 181437Z 19009KT 08/06 A2985 RMK A01 T00800063  RH  089%=      5-min Rain = 0
KTH1 181438Z 19009KT 08/06 A2985 RMK A01 T00810063  RH  088%=      5-min Rain = 0
KTH1 181439Z 19009KT 08/06 A2985 RMK A01 T00810063  RH  088%=      5-min Rain = 0
KTH1 181440Z 19010KT 08/06 A2985 RMK A01 T00810063  RH  088%=      5-min Rain = 0
KTH1 181441Z 19009KT 08/06 A2985 RMK A01 T00820063  RH  088%=      5-min Rain = 0
KTH1 181442Z 18010KT 08/06 A2985 RMK A01 T00820063  RH  088%=      5-min Rain = 0
KTH1 181443Z 19010KT 08/06 A2985 RMK A01 T00820063  RH  088%=      5-min Rain = 0
KTH1 181444Z 18009KT 08/06 A2985 RMK A01 T00820063  RH  088%=      5-min Rain = 0
KTH1 181445Z 18011KT 08/06 A2984 RMK A01 T00830063  RH  088%=      5-min Rain = 0
KTH1 181446Z 18008KT 08/06 A2984 RMK A01 T00830063  RH  087%=      5-min Rain = 0
KTH1 181447Z 18009KT 08/06 A2984 RMK A01 T00830064  RH  088%=      5-min Rain = 0
KTH1 181448Z 18009KT 08/06 A2984 RMK A01 T00840064  RH  087%=      5-min Rain = 0
KTH1 181449Z 18008G14KT 08/07 A2984 RMK A01 T00840065  RH  087%=      5-min Rain = 0
KTH1 181450Z 18011KT 09/07 A2984 RMK A01 T00850065  RH  087%=      5-min Rain = 0
KTH1 181451Z 18009KT 09/07 A2985 RMK A01 T00860065  RH  087%=      5-min Rain = 0
KTH1 181452Z 18008KT 09/07 A2985 RMK A01 T00860066  RH  087%=      5-min Rain = 0
KTH1 181453Z 18009KT 09/07 A2984 RMK A01 T00870066  RH  087%=      5-min Rain = 0
KTH1 181454Z 19007KT 09/07 A2985 RMK A01 T00870066  RH  087%=      5-min Rain = 0
KTH1 181455Z 18010KT 09/07 A2984 RMK A01 T00880067  RH  087%=      5-min Rain = 0
KTH1 181456Z 17010KT 09/07 A2984 RMK A01 T00880067  RH  086%=      5-min Rain = 0
KTH1 181457Z 18009KT 09/07 A2984 RMK A01 T00890066  RH  086%=      5-min Rain = 0
KTH1 181458Z 19008G13KT 09/07 A2984 RMK A01 T00890067  RH  086%=      5-min Rain = 0
KTH1 181459Z 18010G15KT 09/07 A2984 RMK A01 T00900068  RH  086%=      5-min Rain = 0
KTH1 181500Z 18010KT 09/07 A2984 RMK A01 T00900067  RH  085%=      5-min Rain = 0
KTH1 181501Z 18012KT 09/07 A2984 RMK A01 T00910067  RH  085%=      5-min Rain = 0
KTH1 181502Z 18009KT 09/07 A2984 RMK A01 T00910067  RH  085%=      5-min Rain = 0
KTH1 181503Z 18011KT 09/07 A2984 RMK A01 T00920067  RH  085%=      5-min Rain = 0
KTH1 181504Z 18011KT 09/07 A2984 RMK A01 T00920067  RH  084%=      5-min Rain = 0
KTH1 181505Z 18010KT 09/07 A2984 RMK A01 T00930067  RH  084%=      5-min Rain = 0
KTH1 181506Z 18009KT 09/07 A2984 RMK A01 T00930068  RH  084%=      5-min Rain = 0
KTH1 181507Z 18012KT 09/07 A2984 RMK A01 T00940068  RH  084%=      5-min Rain = 0
KTH1 181508Z 18010KT 09/07 A2984 RMK A01 T00940068  RH  084%=      5-min Rain = 0
KTH1 181509Z 18009KT 10/07 A2984 RMK A01 T00950068  RH  084%=      5-min Rain = 0
KTH1 181510Z 18008KT 10/07 A2984 RMK A01 T00960070  RH  084%=      5-min Rain = 0
KTH1 181511Z 18011KT 10/07 A2984 RMK A01 T00970070  RH  084%=      5-min Rain = 0
KTH1 181512Z 18010KT 10/07 A2984 RMK A01 T00970070  RH  083%=      5-min Rain = 0
KTH1 181513Z 18011KT 10/07 A2984 RMK A01 T00980070  RH  083%=      5-min Rain = 0
KTH1 181514Z 18010KT 10/07 A2984 RMK A01 T00990069  RH  082%=      5-min Rain = 0
KTH1 181515Z 18011KT 10/07 A2984 RMK A01 T00990070  RH  082%=      5-min Rain = 0
KTH1 181516Z 18008KT 10/07 A2984 RMK A01 T01000071  RH  082%=      5-min Rain = 0
KTH1 181517Z 18010KT 10/07 A2984 RMK A01 T01010072  RH  082%=      5-min Rain = 0
KTH1 181518Z 18011KT 10/07 A2984 RMK A01 T01020071  RH  081%=      5-min Rain = 0
KTH1 181519Z 18011KT 10/07 A2984 RMK A01 T01030072  RH  081%=      5-min Rain = 0
KTH1 181520Z 18011KT 10/07 A2984 RMK A01 T01040072  RH  081%=      5-min Rain = 0
KTH1 181521Z 19011KT 10/07 A2983 RMK A01 T01040072  RH  080%=      5-min Rain = 0
KTH1 181522Z 18011KT 11/07 A2983 RMK A01 T01050072  RH  080%=      5-min Rain = 0
KTH1 181523Z 18010KT 11/07 A2983 RMK A01 T01050072  RH  080%=      5-min Rain = 0
KTH1 181524Z 18010G15KT 11/07 A2983 RMK A01 T01060072  RH  080%=      5-min Rain = 0
KTH1 181525Z 18012KT 11/07 A2983 RMK A01 T01070072  RH  079%=      5-min Rain = 0
KTH1 181526Z 18011KT 11/07 A2983 RMK A01 T01070072  RH  079%=      5-min Rain = 0
KTH1 181527Z 18011G16KT 11/07 A2983 RMK A01 T01070072  RH  079%=      5-min Rain = 0
KTH1 181528Z 17008KT 11/07 A2983 RMK A01 T01080073  RH  079%=      5-min Rain = 0
KTH1 181529Z 18011KT 11/08 A2983 RMK A01 T01100075  RH  079%=      5-min Rain = 0
KTH1 181530Z 18010KT 11/07 A2983 RMK A01 T01100074  RH  078%=      5-min Rain = 0
KTH1 181531Z 18011KT 11/07 A2983 RMK A01 T01110074  RH  078%=      5-min Rain = 0
KTH1 181532Z 18009KT 11/07 A2983 RMK A01 T01110074  RH  078%=      5-min Rain = 0
KTH1 181533Z 18009KT 11/07 A2983 RMK A01 T01120074  RH  078%=      5-min Rain = 0
KTH1 181534Z 18011KT 11/08 A2983 RMK A01 T01120075  RH  078%=      5-min Rain = 0
KTH1 181535Z 18010KT 11/07 A2982 RMK A01 T01130074  RH  077%=      5-min Rain = 0
KTH1 181536Z 18008KT 11/08 A2983 RMK A01 T01140075  RH  077%=      5-min Rain = 0
KTH1 181537Z 18008KT 12/08 A2982 RMK A01 T01150076  RH  077%=      5-min Rain = 0
KTH1 181538Z 17009KT 12/08 A2982 RMK A01 T01160077  RH  077%=      5-min Rain = 0
KTH1 181539Z 18009KT 12/08 A2982 RMK A01 T01170077  RH  076%=      5-min Rain = 0
KTH1 181540Z 18011KT 12/08 A2982 RMK A01 T01170076  RH  076%=      5-min Rain = 0
KTH1 181541Z 17010KT 12/08 A2982 RMK A01 T01170076  RH  076%=      5-min Rain = 0
KTH1 181542Z 17010G15KT 12/08 A2982 RMK A01 T01170077  RH  076%=      5-min Rain = 0
KTH1 181543Z 17011KT 12/08 A2982 RMK A01 T01180076  RH  076%=      5-min Rain = 0
KTH1 181544Z 18010KT 12/08 A2982 RMK A01 T01180076  RH  075%=      5-min Rain = 0
KTH1 181545Z 18010KT 12/08 A2982 RMK A01 T01190077  RH  076%=      5-min Rain = 0
KTH1 181546Z 18008KT 12/08 A2982 RMK A01 T01190077  RH  076%=      5-min Rain = 0
KTH1 181547Z 19008G13KT 12/08 A2982 RMK A01 T01210079  RH  076%=      5-min Rain = 0
KTH1 181548Z 18007KT 12/08 A2982 RMK A01 T01220079  RH  075%=      5-min Rain = 0
KTH1 181549Z 19010G15KT 12/08 A2983 RMK A01 T01230078  RH  074%=      5-min Rain = 0
KTH1 181550Z 18008KT 12/08 A2983 RMK A01 T01230076  RH  073%=      5-min Rain = 0
KTH1 181551Z 19007KT 12/08 A2983 RMK A01 T01240077  RH  073%=      5-min Rain = 0
KTH1 181552Z 18007KT 12/08 A2983 RMK A01 T01240079  RH  074%=      5-min Rain = 0
KTH1 181553Z 19008KT 13/08 A2983 RMK A01 T01260079  RH  073%=      5-min Rain = 0
KTH1 181554Z 19008KT 13/08 A2983 RMK A01 T01270079  RH  072%=      5-min Rain = 0
KTH1 181555Z 19009KT 13/08 A2983 RMK A01 T01280078  RH  072%=      5-min Rain = 0
KTH1 181556Z 18009KT 13/08 A2983 RMK A01 T01290078  RH  071%=      5-min Rain = 0
KTH1 181557Z 18008KT 13/08 A2982 RMK A01 T01300079  RH  071%=      5-min Rain = 0
KTH1 181558Z 19007KT 13/08 A2983 RMK A01 T01310080  RH  071%=      5-min Rain = 0
KTH1 181559Z 19006KT 13/08 A2983 RMK A01 T01330082  RH  071%=      5-min Rain = 0
KTH1 181600Z 19010KT 14/08 A2983 RMK A01 T01350081  RH  070%=      5-min Rain = 0
KTH1 181601Z 19009KT 14/08 A2983 RMK A01 T01360080  RH  069%=      5-min Rain = 0
KTH1 181602Z 19006KT 14/08 A2983 RMK A01 T01360080  RH  069%=      5-min Rain = 0
KTH1 181603Z 19010KT 14/08 A2983 RMK A01 T01360078  RH  068%=      5-min Rain = 0
KTH1 181604Z 19009KT 14/08 A2982 RMK A01 T01370080  RH  068%=      5-min Rain = 0
KTH1 181605Z 19009KT 14/08 A2982 RMK A01 T01390084  RH  069%=      5-min Rain = 0
KTH1 181606Z 19011KT 14/08 A2982 RMK A01 T01400079  RH  067%=      5-min Rain = 0
KTH1 181607Z 18008KT 14/08 A2982 RMK A01 T01390078  RH  067%=      5-min Rain = 0
KTH1 181608Z 18007KT 14/08 A2982 RMK A01 T01380080  RH  068%=      5-min Rain = 0
KTH1 181609Z 19008KT 14/08 A2982 RMK A01 T01380081  RH  068%=      5-min Rain = 0
KTH1 181610Z 20008KT 14/08 A2983 RMK A01 T01380079  RH  067%=      5-min Rain = 0
KTH1 181611Z 19006KT 14/08 A2983 RMK A01 T01380080  RH  068%=      5-min Rain = 0
KTH1 181612Z 19008KT 14/08 A2983 RMK A01 T01380079  RH  068%=      5-min Rain = 0
KTH1 181613Z 19008KT 14/08 A2983 RMK A01 T01370079  RH  068%=      5-min Rain = 0
KTH1 181614Z 20008KT 14/08 A2983 RMK A01 T01360078  RH  068%=      5-min Rain = 0
KTH1 181615Z 19009KT 14/08 A2983 RMK A01 T01360076  RH  067%=      5-min Rain = 0
KTH1 181616Z 20008KT 14/08 A2983 RMK A01 T01350076  RH  067%=      5-min Rain = 0
KTH1 181617Z 19009KT 13/08 A2982 RMK A01 T01340076  RH  068%=      5-min Rain = 0
KTH1 181618Z 18008KT 13/08 A2982 RMK A01 T01340076  RH  068%=      5-min Rain = 0
KTH1 181619Z 18008KT 13/08 A2982 RMK A01 T01340077  RH  069%=      5-min Rain = 0
KTH1 181620Z 19007KT 13/08 A2982 RMK A01 T01340077  RH  069%=      5-min Rain = 0
KTH1 181621Z 19007KT 13/08 A2982 RMK A01 T01340077  RH  068%=      5-min Rain = 0
KTH1 181622Z 19008KT 13/08 A2982 RMK A01 T01340077  RH  068%=      5-min Rain = 0
KTH1 181623Z 19006KT 14/08 A2982 RMK A01 T01350078  RH  069%=      5-min Rain = 0
KTH1 181624Z 18007KT 14/08 A2982 RMK A01 T01350079  RH  069%=      5-min Rain = 0
KTH1 181625Z 19009KT 14/08 A2982 RMK A01 T01360078  RH  068%=      5-min Rain = 0
KTH1 181626Z 19009KT 14/08 A2982 RMK A01 T01360078  RH  068%=      5-min Rain = 0
KTH1 181627Z 18006KT 14/08 A2982 RMK A01 T01360079  RH  068%=      5-min Rain = 0
KTH1 181628Z 19004KT 14/09 A2982 RMK A01 T01390087  RH  071%=      5-min Rain = 0
KTH1 181629Z 18007KT 14/09 A2982 RMK A01 T01430087  RH  069%=      5-min Rain = 0
KTH1 181630Z 18006KT 15/09 A2982 RMK A01 T01460088  RH  068%=      5-min Rain = 0
KTH1 181631Z 18008KT 15/08 A2982 RMK A01 T01470084  RH  066%=      5-min Rain = 0
KTH1 181632Z 17008KT 15/09 A2982 RMK A01 T01480085  RH  066%=      5-min Rain = 0
KTH1 181633Z 18006KT 15/09 A2982 RMK A01 T01500089  RH  067%=      5-min Rain = 0
KTH1 181634Z 17008KT 15/09 A2982 RMK A01 T01520087  RH  065%=      5-min Rain = 0
KTH1 181635Z 18009KT 15/09 A2982 RMK A01 T01520085  RH  064%=      5-min Rain = 0
KTH1 181636Z 17007KT 15/09 A2982 RMK A01 T01520087  RH  065%=      5-min Rain = 0
KTH1 181637Z 19007KT 15/09 A2982 RMK A01 T01520086  RH  065%=      5-min Rain = 0
KTH1 181638Z 18008KT 15/09 A2982 RMK A01 T01520087  RH  065%=      5-min Rain = 0
KTH1 181639Z 18007KT 15/09 A2982 RMK A01 T01510086  RH  065%=      5-min Rain = 0
KTH1 181640Z 18006KT 15/09 A2982 RMK A01 T01510087  RH  066%=      5-min Rain = 0
KTH1 181641Z 18007KT 15/09 A2982 RMK A01 T01510086  RH  065%=      5-min Rain = 0
KTH1 181642Z 17007KT 15/09 A2982 RMK A01 T01510086  RH  065%=      5-min Rain = 0
KTH1 181643Z 18006KT 15/09 A2982 RMK A01 T01500086  RH  065%=      5-min Rain = 0
KTH1 181644Z 18006KT 15/09 A2982 RMK A01 T01500086  RH  065%=      5-min Rain = 0
KTH1 181645Z 19005KT 15/09 A2982 RMK A01 T01500086  RH  066%=      5-min Rain = 0
KTH1 181646Z 18006KT 15/09 A2982 RMK A01 T01500086  RH  065%=      5-min Rain = 0
KTH1 181647Z 19006KT 15/09 A2982 RMK A01 T01500085  RH  065%=      5-min Rain = 0
KTH1 181648Z 18006KT 15/09 A2981 RMK A01 T01520087  RH  065%=      5-min Rain = 0
KTH1 181649Z 18005KT 15/09 A2981 RMK A01 T01540088  RH  065%=      5-min Rain = 0
KTH1 181650Z 19006KT 16/09 A2981 RMK A01 T01560089  RH  064%=      5-min Rain = 0
KTH1 181651Z 19007KT 16/09 A2981 RMK A01 T01590088  RH  063%=      5-min Rain = 0
KTH1 181652Z 18006KT 16/09 A2981 RMK A01 T01600086  RH  061%=      5-min Rain = 0
KTH1 181653Z 19007KT 16/09 A2981 RMK A01 T01630089  RH  061%=      5-min Rain = 0
KTH1 181654Z 18008KT 17/09 A2981 RMK A01 T01660089  RH  060%=      5-min Rain = 0
KTH1 181655Z 18006KT 17/09 A2981 RMK A01 T01680090  RH  060%=      5-min Rain = 0
KTH1 181656Z 17004KT 17/09 A2981 RMK A01 T01700093  RH  060%=      5-min Rain = 0
KTH1 181657Z 17006KT 17/10 A2981 RMK A01 T01720095  RH  060%=      5-min Rain = 0
KTH1 181658Z 18007KT 17/09 A2981 RMK A01 T01740093  RH  059%=      5-min Rain = 0
KTH1 181659Z 18006KT 18/09 A2981 RMK A01 T01750091  RH  058%=      5-min Rain = 0
KTH1 181700Z 18008KT 18/09 A2981 RMK A01 T01750091  RH  058%=      5-min Rain = 0
KTH1 181701Z 18006KT 18/09 A2981 RMK A01 T01750090  RH  058%=      5-min Rain = 0
KTH1 181702Z 18008KT 18/09 A2981 RMK A01 T01750089  RH  057%=      5-min Rain = 0
KTH1 181703Z 19008KT 18/09 A2981 RMK A01 T01770091  RH  057%=      5-min Rain = 0
KTH1 181704Z 19008KT 18/09 A298 RMK A01 T01770088  RH  056%=      5-min Rain = 0
KTH1 181705Z 17007KT 18/09 A298 RMK A01 T01770090  RH  057%=      5-min Rain = 0
KTH1 181706Z 17008KT 18/09 A298 RMK A01 T01770092  RH  058%=      5-min Rain = 0
KTH1 181707Z 18008KT 18/09 A298 RMK A01 T01780088  RH  056%=      5-min Rain = 0
KTH1 181708Z 18008KT 18/09 A298 RMK A01 T01780092  RH  057%=      5-min Rain = 0
KTH1 181709Z 18010KT 18/09 A298 RMK A01 T01790090  RH  056%=      5-min Rain = 0
KTH1 181710Z 19009KT 18/09 A298 RMK A01 T01790088  RH  055%=      5-min Rain = 0
KTH1 181711Z 19009KT 18/09 A298 RMK A01 T01790090  RH  056%=      5-min Rain = 0
KTH1 181712Z 20008KT 18/09 A298 RMK A01 T01790089  RH  056%=      5-min Rain = 0
KTH1 181713Z 19006KT 18/09 A298 RMK A01 T01800091  RH  056%=      5-min Rain = 0
KTH1 181714Z 20007KT 18/09 A2981 RMK A01 T01810092  RH  056%=      5-min Rain = 0
KTH1 181715Z 19009KT 18/09 A298 RMK A01 T01840091  RH  055%=      5-min Rain = 0
KTH1 181716Z 19006KT 18/09 A2981 RMK A01 T01840091  RH  055%=      5-min Rain = 0
KTH1 181717Z 20007KT 18/09 A298 RMK A01 T01840094  RH  055%=      5-min Rain = 0
KTH1 181718Z 19008KT 19/09 A298 RMK A01 T01850091  RH  054%=      5-min Rain = 0
KTH1 181719Z 20005KT 18/09 A298 RMK A01 T01840090  RH  054%=      5-min Rain = 0
KTH1 181720Z 20007KT 18/09 A298 RMK A01 T01840091  RH  055%=      5-min Rain = 0
KTH1 181721Z 21008KT 19/09 A298 RMK A01 T01850090  RH  054%=      5-min Rain = 0
KTH1 181722Z 21006KT 18/09 A298 RMK A01 T01840090  RH  054%=      5-min Rain = 0
KTH1 181723Z 21007KT 18/09 A298 RMK A01 T01830091  RH  055%=      5-min Rain = 0
KTH1 181724Z 22008KT 18/09 A298 RMK A01 T01830090  RH  055%=      5-min Rain = 0
KTH1 181725Z 21008KT 18/09 A298 RMK A01 T01830090  RH  055%=      5-min Rain = 0
KTH1 181726Z 21009KT 18/09 A298 RMK A01 T01830089  RH  054%=      5-min Rain = 0
KTH1 181727Z 20007KT 19/09 A298 RMK A01 T01850089  RH  054%=      5-min Rain = 0
KTH1 181728Z 21007KT 19/09 A298 RMK A01 T01870089  RH  053%=      5-min Rain = 0
KTH1 181729Z 22007KT 19/09 A298 RMK A01 T01900092  RH  053%=      5-min Rain = 0
KTH1 181730Z 21008KT 19/09 A298 RMK A01 T01930090  RH  051%=      5-min Rain = 0
KTH1 181731Z 21009KT 20/09 A298 RMK A01 T01960089  RH  050%=      5-min Rain = 0
KTH1 181732Z 21008KT 20/09 A2979 RMK A01 T01980089  RH  049%=      5-min Rain = 0
KTH1 181733Z 20008G17KT 20/09 A2979 RMK A01 T02010090  RH  049%=      5-min Rain = 0
KTH1 181734Z 20010KT 20/08 A2979 RMK A01 T02030083  RH  046%=      5-min Rain = 0
KTH1 181735Z 21009KT 20/09 A2979 RMK A01 T02040086  RH  047%=      5-min Rain = 0
KTH1 181736Z 21010KT 21/09 A2978 RMK A01 T02060085  RH  046%=      5-min Rain = 0
KTH1 181737Z 20010KT 21/09 A2978 RMK A01 T02070087  RH  046%=      5-min Rain = 0
KTH1 181738Z 21012KT 21/09 A2978 RMK A01 T02080086  RH  045%=      5-min Rain = 0
KTH1 181739Z 21011KT 21/08 A2978 RMK A01 T02100084  RH  045%=      5-min Rain = 0
KTH1 181740Z 21011KT 21/08 A2978 RMK A01 T02100083  RH  044%=      5-min Rain = 0
KTH1 181741Z 22011KT 21/08 A2977 RMK A01 T02110084  RH  044%=      5-min Rain = 0
KTH1 181742Z 22013KT 21/08 A2977 RMK A01 T02110082  RH  043%=      5-min Rain = 0
KTH1 181743Z 22012KT 21/08 A2977 RMK A01 T02100080  RH  043%=      5-min Rain = 0
KTH1 181744Z 21011KT 21/08 A2977 RMK A01 T02080077  RH  043%=      5-min Rain = 0
KTH1 181745Z 22011KT 21/08 A2977 RMK A01 T02080077  RH  043%=      5-min Rain = 0
KTH1 181746Z 21008KT 21/08 A2977 RMK A01 T02080077  RH  043%=      5-min Rain = 0
KTH1 181747Z 21011KT 21/08 A2977 RMK A01 T02090078  RH  043%=      5-min Rain = 0
KTH1 181748Z 22008G14KT 21/08 A2977 RMK A01 T02100079  RH  043%=      5-min Rain = 0
KTH1 181749Z 22013G18KT 21/08 A2977 RMK A01 T02100079  RH  043%=      5-min Rain = 0
KTH1 181750Z 22012KT 21/08 A2977 RMK A01 T02110076  RH  042%=      5-min Rain = 0
KTH1 181751Z 22011KT 21/08 A2977 RMK A01 T02120077  RH  042%=      5-min Rain = 0
KTH1 181752Z 21012G17KT 21/08 A2977 RMK A01 T02130077  RH  042%=      5-min Rain = 0
KTH1 181753Z 21011KT 21/08 A2977 RMK A01 T02140078  RH  042%=      5-min Rain = 0
KTH1 181754Z 21013KT 22/08 A2976 RMK A01 T02150079  RH  041%=      5-min Rain = 0
KTH1 181755Z 21015KT 22/08 A2976 RMK A01 T02160076  RH  040%=      5-min Rain = 0
KTH1 181756Z 21015KT 22/08 A2976 RMK A01 T02160075  RH  040%=      5-min Rain = 0
KTH1 181757Z 21011KT 22/08 A2976 RMK A01 T02160076  RH  040%=      5-min Rain = 0
KTH1 181758Z 22011G16KT 22/08 A2976 RMK A01 T02170075  RH  040%=      5-min Rain = 0
KTH1 181759Z 22013KT 22/08 A2976 RMK A01 T02170076  RH  040%=      5-min Rain = 0
KTH1 181800Z 22010KT 22/08 A2976 RMK A01 T02170078  RH  041%=      5-min Rain = 0
KTH1 181801Z 22008KT 22/08 A2976 RMK A01 T02170080  RH  041%=      5-min Rain = 0
KTH1 181802Z 22011G17KT 22/08 A2976 RMK A01 T02180078  RH  040%=      5-min Rain = 0
KTH1 181803Z 23013KT 22/08 A2976 RMK A01 T02170075  RH  040%=      5-min Rain = 0
KTH1 181804Z 23011KT 22/08 A2976 RMK A01 T02170076  RH  040%=      5-min Rain = 0
KTH1 181805Z 23012KT 22/08 A2976 RMK A01 T02170075  RH  040%=      5-min Rain = 0
KTH1 181806Z 21009KT 22/08 A2975 RMK A01 T02170075  RH  040%=      5-min Rain = 0
KTH1 181807Z 23011KT 22/08 A2975 RMK A01 T02180076  RH  040%=      5-min Rain = 0
KTH1 181808Z 22010KT 22/08 A2975 RMK A01 T02190075  RH  040%=      5-min Rain = 0
KTH1 181809Z 22011KT 22/08 A2975 RMK A01 T02190077  RH  040%=      5-min Rain = 0
KTH1 181810Z 22008KT 22/08 A2975 RMK A01 T02200077  RH  040%=      5-min Rain = 0
KTH1 181811Z 23010KT 22/08 A2975 RMK A01 T02200076  RH  040%=      5-min Rain = 0
KTH1 181812Z 23009KT 22/08 A2975 RMK A01 T02200076  RH  039%=      5-min Rain = 0
KTH1 181813Z 21009KT 22/08 A2975 RMK A01 T02200075  RH  039%=      5-min Rain = 0
KTH1 181814Z 23012KT 22/08 A2974 RMK A01 T02200076  RH  039%=      5-min Rain = 0
KTH1 181815Z 22012KT 22/08 A2974 RMK A01 T02200075  RH  039%=      5-min Rain = 0
KTH1 181816Z 23011KT 22/08 A2974 RMK A01 T02200075  RH  039%=      5-min Rain = 0
KTH1 181817Z 23012KT 22/08 A2974 RMK A01 T02190075  RH  039%=      5-min Rain = 0
KTH1 181818Z 23010KT 22/07 A2974 RMK A01 T02190074  RH  039%=      5-min Rain = 0
KTH1 181819Z 23009KT 22/08 A2974 RMK A01 T02200076  RH  040%=      5-min Rain = 0
KTH1 181820Z 22011KT 22/08 A2974 RMK A01 T02200077  RH  040%=      5-min Rain = 0
KTH1 181821Z 21011KT 22/08 A2974 RMK A01 T02210078  RH  040%=      5-min Rain = 0
KTH1 181822Z 22010KT 22/08 A2974 RMK A01 T02210077  RH  039%=      5-min Rain = 0
KTH1 181823Z 20012KT 22/08 A2974 RMK A01 T02220079  RH  040%=      5-min Rain = 0
KTH1 181824Z 22011KT 22/08 A2974 RMK A01 T02230079  RH  040%=      5-min Rain = 0
KTH1 181825Z 24008KT 22/08 A2974 RMK A01 T02240079  RH  039%=      5-min Rain = 0
KTH1 181826Z 23009KT 23/08 A2973 RMK A01 T02250080  RH  039%=      5-min Rain = 0
KTH1 181827Z 22010G15KT 23/08 A2973 RMK A01 T02260078  RH  039%=      5-min Rain = 0
KTH1 181828Z 23013KT 23/08 A2973 RMK A01 T02280076  RH  038%=      5-min Rain = 0
KTH1 181829Z 25015KT 23/08 A2973 RMK A01 T02270077  RH  038%=      5-min Rain = 0
KTH1 181830Z 24015KT 22/08 A2973 RMK A01 T02200075  RH  039%=      5-min Rain = 0
KTH1 181831Z 24013G18KT 22/07 A2973 RMK A01 T02150072  RH  040%=      5-min Rain = 0
KTH1 181832Z 24013KT 22/07 A2973 RMK A01 T02160074  RH  040%=      5-min Rain = 0
KTH1 181833Z 22013KT 22/07 A2972 RMK A01 T02180073  RH  039%=      5-min Rain = 0
KTH1 181834Z 21018KT 22/07 A2972 RMK A01 T02240072  RH  038%=      5-min Rain = 0
KTH1 181835Z 22012G17KT 23/07 A2972 RMK A01 T02270072  RH  037%=      5-min Rain = 0
KTH1 181836Z 22015KT 23/07 A2972 RMK A01 T02290073  RH  037%=      5-min Rain = 0
KTH1 181837Z 22012G18KT 23/07 A2972 RMK A01 T02290071  RH  036%=      5-min Rain = 0
KTH1 181838Z 22012G17KT 23/08 A2972 RMK A01 T02290076  RH  037%=      5-min Rain = 0
KTH1 181839Z 23012G17KT 23/08 A2972 RMK A01 T02300075  RH  037%=      5-min Rain = 0
KTH1 181840Z 23010KT 23/08 A2972 RMK A01 T02310076  RH  037%=      5-min Rain = 0
KTH1 181841Z 23016G21KT 23/08 A2972 RMK A01 T02310075  RH  037%=      5-min Rain = 0
KTH1 181842Z 23017G22KT 23/07 A2971 RMK A01 T02290070  RH  036%=      5-min Rain = 0
KTH1 181843Z 22016KT 23/07 A2972 RMK A01 T02270070  RH  036%=      5-min Rain = 0
KTH1 181844Z 22013KT 23/07 A2971 RMK A01 T02260072  RH  037%=      5-min Rain = 0
KTH1 181845Z 23014G19KT 23/07 A2971 RMK A01 T02260072  RH  037%=      5-min Rain = 0
KTH1 181846Z 23012KT 23/07 A2971 RMK A01 T02260072  RH  037%=      5-min Rain = 0
KTH1 181847Z 23013KT 23/07 A2971 RMK A01 T02250073  RH  038%=      5-min Rain = 0
KTH1 181848Z 24016G21KT 23/08 A2971 RMK A01 T02260075  RH  038%=      5-min Rain = 0
KTH1 181849Z 23020KT 22/07 A2971 RMK A01 T02240072  RH  037%=      5-min Rain = 0
KTH1 181850Z 22017KT 22/07 A2971 RMK A01 T02220071  RH  038%=      5-min Rain = 0
KTH1 181851Z 22013G18KT 22/07 A2971 RMK A01 T02230074  RH  038%=      5-min Rain = 0
KTH1 181852Z 23017KT 23/07 A297 RMK A01 T02250072  RH  037%=      5-min Rain = 0
KTH1 181853Z 23016KT 23/07 A297 RMK A01 T02250072  RH  037%=      5-min Rain = 0
KTH1 181854Z 24011KT 22/07 A297 RMK A01 T02240073  RH  038%=      5-min Rain = 0
KTH1 181855Z 24011KT 22/08 A297 RMK A01 T02220076  RH  039%=      5-min Rain = 0
KTH1 181856Z 24012KT 22/08 A297 RMK A01 T02220078  RH  040%=      5-min Rain = 0
KTH1 181857Z 23013KT 22/08 A297 RMK A01 T02210078  RH  040%=      5-min Rain = 0
KTH1 181858Z 22015KT 22/08 A297 RMK A01 T02220075  RH  039%=      5-min Rain = 0
KTH1 181859Z 22012KT 23/08 A297 RMK A01 T02250076  RH  038%=      5-min Rain = 0
KTH1 181900Z 23013G19KT 23/08 A297 RMK A01 T02270077  RH  038%=      5-min Rain = 0
KTH1 181901Z 23016KT 23/08 A297 RMK A01 T02280076  RH  038%=      5-min Rain = 0
KTH1 181902Z 23013G20KT 23/07 A2969 RMK A01 T02280074  RH  037%=      5-min Rain = 0
KTH1 181903Z 23015KT 23/08 A2969 RMK A01 T02280076  RH  038%=      5-min Rain = 0
KTH1 181904Z 22016G21KT 23/08 A2969 RMK A01 T02290075  RH  037%=      5-min Rain = 0
KTH1 181905Z 22016KT 23/07 A2969 RMK A01 T02290074  RH  037%=      5-min Rain = 0
KTH1 181906Z 24016KT 23/08 A2969 RMK A01 T02290075  RH  037%=      5-min Rain = 0
KTH1 181907Z 23014KT 23/08 A2969 RMK A01 T02290076  RH  037%=      5-min Rain = 0
KTH1 181908Z 24013KT 23/08 A2969 RMK A01 T02280075  RH  037%=      5-min Rain = 0
KTH1 181909Z 24011KT 23/08 A2969 RMK A01 T02260076  RH  038%=      5-min Rain = 0
KTH1 181910Z 22011G16KT 23/08 A2968 RMK A01 T02250078  RH  039%=      5-min Rain = 0
KTH1 181911Z 22015G21KT 23/08 A2968 RMK A01 T02280077  RH  038%=      5-min Rain = 0
KTH1 181912Z 21016KT 23/08 A2968 RMK A01 T02310075  RH  037%=      5-min Rain = 0
KTH1 181913Z 23013KT 23/08 A2968 RMK A01 T02320075  RH  036%=      5-min Rain = 0
KTH1 181914Z 22010KT 23/08 A2968 RMK A01 T02330076  RH  037%=      5-min Rain = 0
KTH1 181915Z 22015KT 23/08 A2967 RMK A01 T02330078  RH  037%=      5-min Rain = 0
KTH1 181916Z 20015KT 24/08 A2967 RMK A01 T02350077  RH  036%=      5-min Rain = 0
KTH1 181917Z 23010KT 24/08 A2967 RMK A01 T02360079  RH  037%=      5-min Rain = 0
KTH1 181918Z 23013KT 24/08 A2967 RMK A01 T02370080  RH  037%=      5-min Rain = 0
KTH1 181919Z 24012KT 24/08 A2967 RMK A01 T02350078  RH  036%=      5-min Rain = 0
KTH1 181920Z 22011KT 23/08 A2967 RMK A01 T02330077  RH  037%=      5-min Rain = 0
KTH1 181921Z 23010KT 23/08 A2967 RMK A01 T02330076  RH  037%=      5-min Rain = 0
KTH1 181922Z 25016KT 23/07 A2966 RMK A01 T02330073  RH  036%=      5-min Rain = 0
KTH1 181923Z 22014G19KT 23/07 A2967 RMK A01 T02300070  RH  036%=      5-min Rain = 0
KTH1 181924Z 23012G17KT 23/07 A2967 RMK A01 T02320069  RH  035%=      5-min Rain = 0
KTH1 181925Z 24015G20KT 24/07 A2967 RMK A01 T02350068  RH  034%=      5-min Rain = 0
KTH1 181926Z 25018G23KT 23/07 A2967 RMK A01 T02330069  RH  035%=      5-min Rain = 0
KTH1 181927Z 25021KT 23/07 A2966 RMK A01 T02250067  RH  036%=      5-min Rain = 0
KTH1 181928Z 24017KT 22/07 A2966 RMK A01 T02220066  RH  036%=      5-min Rain = 0
KTH1 181929Z 24016KT 22/07 A2966 RMK A01 T02220068  RH  037%=      5-min Rain = 0
KTH1 181930Z 23013KT 22/07 A2966 RMK A01 T02230069  RH  037%=      5-min Rain = 0
KTH1 181931Z 22013G18KT 23/07 A2966 RMK A01 T02270069  RH  036%=      5-min Rain = 0
KTH1 181932Z 23018KT 23/07 A2966 RMK A01 T02330069  RH  035%=      5-min Rain = 0
KTH1 181933Z 22017KT 23/07 A2966 RMK A01 T02340068  RH  034%=      5-min Rain = 0
KTH1 181934Z 22014G20KT 24/07 A2966 RMK A01 T02360072  RH  035%=      5-min Rain = 0
KTH1 181935Z 22013G19KT 24/07 A2965 RMK A01 T02380071  RH  034%=      5-min Rain = 0
KTH1 181936Z 23014KT 24/07 A2965 RMK A01 T02390072  RH  034%=      5-min Rain = 0
KTH1 181937Z 22014G21KT 24/07 A2965 RMK A01 T02390074  RH  035%=      5-min Rain = 0
KTH1 181938Z 23016KT 24/07 A2965 RMK A01 T02390071  RH  034%=      5-min Rain = 0
KTH1 181939Z 24017G23KT 24/07 A2965 RMK A01 T02390073  RH  035%=      5-min Rain = 0
KTH1 181940Z 24015G21KT 24/07 A2965 RMK A01 T02360074  RH  035%=      5-min Rain = 0
KTH1 181941Z 24018KT 24/07 A2965 RMK A01 T02350072  RH  035%=      5-min Rain = 0
KTH1 181942Z 24013G19KT 23/07 A2965 RMK A01 T02340072  RH  035%=      5-min Rain = 0
KTH1 181943Z 24013KT 23/07 A2965 RMK A01 T02330074  RH  036%=      5-min Rain = 0
KTH1 181944Z 24015KT 23/07 A2965 RMK A01 T02330074  RH  036%=      5-min Rain = 0
KTH1 181945Z 24018KT 23/07 A2964 RMK A01 T02320073  RH  036%=      5-min Rain = 0
KTH1 181946Z 23015G22KT 23/07 A2964 RMK A01 T02290073  RH  037%=      5-min Rain = 0
KTH1 181947Z 21013KT 23/07 A2964 RMK A01 T02300073  RH  036%=      5-min Rain = 0
KTH1 181948Z 22011KT 24/08 A2964 RMK A01 T02350075  RH  036%=      5-min Rain = 0
KTH1 181949Z 22012KT 24/08 A2964 RMK A01 T02390075  RH  035%=      5-min Rain = 0
KTH1 181950Z 22015G23KT 24/07 A2964 RMK A01 T02400073  RH  034%=      5-min Rain = 0
KTH1 181951Z 23018G24KT 24/07 A2964 RMK A01 T02420068  RH  033%=      5-min Rain = 0
KTH1 181952Z 24015KT 24/07 A2964 RMK A01 T02420066  RH  032%=      5-min Rain = 0
KTH1 181953Z 24016G22KT 24/07 A2964 RMK A01 T02400066  RH  033%=      5-min Rain = 0
KTH1 181954Z 25016KT 24/07 A2964 RMK A01 T02390067  RH  033%=      5-min Rain = 0
KTH1 181955Z 25017KT 24/07 A2964 RMK A01 T02350068  RH  034%=      5-min Rain = 0
KTH1 181956Z 23014KT 23/07 A2964 RMK A01 T02310067  RH  035%=      5-min Rain = 0
KTH1 181957Z 24016KT 23/06 A2964 RMK A01 T02330063  RH  034%=      5-min Rain = 0
KTH1 181958Z 24017G22KT 23/07 A2963 RMK A01 T02340065  RH  034%=      5-min Rain = 0
KTH1 181959Z 24019G24KT 23/06 A2963 RMK A01 T02330063  RH  033%=      5-min Rain = 0
KTH1 182000Z 23016G21KT 23/06 A2963 RMK A01 T02310063  RH  034%=      5-min Rain = 0
KTH1 182001Z 24021KT 23/06 A2963 RMK A01 T02310060  RH  033%=      5-min Rain = 0
KTH1 182002Z 24018G24KT 23/06 A2963 RMK A01 T02320059  RH  033%=      5-min Rain = 0
KTH1 182003Z 24019G24KT 23/06 A2963 RMK A01 T02320058  RH  032%=      5-min Rain = 0
KTH1 182004Z 24019KT 23/06 A2963 RMK A01 T02330057  RH  032%=      5-min Rain = 0
KTH1 182005Z 24021G29KT 23/05 A2963 RMK A01 T02320054  RH  032%=      5-min Rain = 0
KTH1 182006Z 24018KT 23/05 A2963 RMK A01 T02320053  RH  031%=      5-min Rain = 0
KTH1 182007Z 25016KT 23/06 A2963 RMK A01 T02280058  RH  033%=      5-min Rain = 0
KTH1 182008Z 25018KT 22/06 A2963 RMK A01 T02230060  RH  035%=      5-min Rain = 0
KTH1 182009Z 25019KT 22/06 A2963 RMK A01 T02200058  RH  035%=      5-min Rain = 0
KTH1 182010Z 25019KT 22/06 A2963 RMK A01 T02180059  RH  036%=      5-min Rain = 0
KTH1 182011Z 25018KT 22/06 A2963 RMK A01 T02160060  RH  036%=      5-min Rain = 0
KTH1 182012Z 25018KT 21/06 A2963 RMK A01 T02140061  RH  037%=      5-min Rain = 0
KTH1 182013Z 24017G22KT 21/06 A2963 RMK A01 T02130060  RH  037%=      5-min Rain = 0
KTH1 182014Z 25019KT 22/06 A2963 RMK A01 T02160055  RH  035%=      5-min Rain = 0
KTH1 182015Z 25017KT 22/06 A2963 RMK A01 T02170060  RH  036%=      5-min Rain = 0
KTH1 182016Z 25020KT 21/06 A2963 RMK A01 T02140060  RH  037%=      5-min Rain = 0
KTH1 182017Z 26022KT 21/06 A2963 RMK A01 T02140058  RH  036%=      5-min Rain = 0
KTH1 182018Z 25020KT 21/06 A2963 RMK A01 T02140056  RH  036%=      5-min Rain = 0
KTH1 182019Z 26018KT 22/06 A2963 RMK A01 T02160059  RH  036%=      5-min Rain = 0
KTH1 182020Z 25019KT 22/06 A2963 RMK A01 T02150062  RH  037%=      5-min Rain = 0
KTH1 182021Z 25018KT 21/06 A2963 RMK A01 T02140059  RH  037%=      5-min Rain = 0
KTH1 182022Z 25016KT 21/06 A2963 RMK A01 T02140061  RH  037%=      5-min Rain = 0
KTH1 182023Z 25014KT 21/06 A2963 RMK A01 T02140063  RH  038%=      5-min Rain = 0
KTH1 182024Z 25014KT 21/06 A2963 RMK A01 T02120064  RH  038%=      5-min Rain = 0
KTH1 182025Z 25016KT 21/06 A2963 RMK A01 T02120063  RH  038%=      5-min Rain = 0
KTH1 182026Z 25015KT 22/06 A2963 RMK A01 T02170062  RH  037%=      5-min Rain = 0
KTH1 182027Z 25013KT 22/07 A2964 RMK A01 T02190066  RH  037%=      5-min Rain = 0
KTH1 182028Z 25016KT 22/07 A2963 RMK A01 T02170066  RH  038%=      5-min Rain = 0
KTH1 182029Z 24017G22KT 22/06 A2963 RMK A01 T02180062  RH  036%=      5-min Rain = 0
KTH1 182030Z 24018KT 22/06 A2963 RMK A01 T02230058  RH  034%=      5-min Rain = 0
KTH1 182031Z 24015KT 23/06 A2963 RMK A01 T02260059  RH  034%=      5-min Rain = 0
KTH1 182032Z 24015KT 23/06 A2963 RMK A01 T02290059  RH  033%=      5-min Rain = 0
KTH1 182033Z 24016KT 23/06 A2963 RMK A01 T02300058  RH  033%=      5-min Rain = 0
KTH1 182034Z 24018KT 23/06 A2963 RMK A01 T02300058  RH  033%=      5-min Rain = 0
KTH1 182035Z 24020KT 23/06 A2963 RMK A01 T02300056  RH  032%=      5-min Rain = 0
KTH1 182036Z 24018G27KT 23/06 A2963 RMK A01 T02300056  RH  032%=      5-min Rain = 0
KTH1 182037Z 24020G27KT 23/05 A2963 RMK A01 T02290054  RH  032%=      5-min Rain = 0
KTH1 182038Z 23021G29KT 23/05 A2963 RMK A01 T02290053  RH  032%=      5-min Rain = 0
KTH1 182039Z 23023KT 23/05 A2962 RMK A01 T02310047  RH  030%=      5-min Rain = 0
KTH1 182040Z 24017G22KT 23/05 A2962 RMK A01 T02320049  RH  030%=      5-min Rain = 0
KTH1 182041Z 24019KT 23/05 A2962 RMK A01 T02320050  RH  031%=      5-min Rain = 0
KTH1 182042Z 23017G23KT 23/05 A2962 RMK A01 T02310050  RH  031%=      5-min Rain = 0
KTH1 182043Z 22015G20KT 23/05 A2962 RMK A01 T02300049  RH  031%=      5-min Rain = 0
KTH1 182044Z 24013KT 23/05 A2962 RMK A01 T02320051  RH  031%=      5-min Rain = 0
KTH1 182045Z 24017KT 23/05 A2962 RMK A01 T02320053  RH  031%=      5-min Rain = 0
KTH1 182046Z 23014KT 23/05 A2962 RMK A01 T02300052  RH  032%=      5-min Rain = 0
KTH1 182047Z 23016KT 23/05 A2962 RMK A01 T02290049  RH  031%=      5-min Rain = 0
KTH1 182048Z 24016G22KT 23/05 A2962 RMK A01 T02300047  RH  030%=      5-min Rain = 0
KTH1 182049Z 24016KT 23/05 A2962 RMK A01 T02300048  RH  031%=      5-min Rain = 0
KTH1 182050Z 24015G20KT 23/05 A2962 RMK A01 T02300048  RH  031%=      5-min Rain = 0
KTH1 182051Z 23015KT 23/05 A2962 RMK A01 T02300047  RH  030%=      5-min Rain = 0
KTH1 182052Z 24016KT 23/05 A2962 RMK A01 T02300051  RH  031%=      5-min Rain = 0
KTH1 182053Z 24013G18KT 23/05 A2962 RMK A01 T02280051  RH  032%=      5-min Rain = 0
KTH1 182054Z 24016KT 23/05 A2962 RMK A01 T02270052  RH  032%=      5-min Rain = 0
KTH1 182055Z 24014KT 23/05 A2962 RMK A01 T02260053  RH  032%=      5-min Rain = 0
KTH1 182056Z 24016KT 23/05 A2962 RMK A01 T02250052  RH  032%=      5-min Rain = 0
KTH1 182057Z 24015KT 22/05 A2962 RMK A01 T02240052  RH  033%=      5-min Rain = 0
KTH1 182058Z 24015G20KT 22/05 A2962 RMK A01 T02240050  RH  032%=      5-min Rain = 0
KTH1 182059Z 23013G19KT 23/05 A2962 RMK A01 T02250050  RH  032%=      5-min Rain = 0
KTH1 182100Z 24011KT 23/05 A2962 RMK A01 T02260049  RH  031%=      5-min Rain = 0
KTH1 182101Z 24016G21KT 23/05 A2961 RMK A01 T02280049  RH  031%=      5-min Rain = 0
KTH1 182102Z 24016G22KT 23/05 A2961 RMK A01 T02280048  RH  031%=      5-min Rain = 0
KTH1 182103Z 24014KT 23/05 A2961 RMK A01 T02280047  RH  031%=      5-min Rain = 0
KTH1 182104Z 23015G20KT 23/05 A2961 RMK A01 T02290047  RH  031%=      5-min Rain = 0
KTH1 182105Z 23013KT 23/05 A2961 RMK A01 T02290047  RH  031%=      5-min Rain = 0
KTH1 182106Z 23011G16KT 23/05 A2961 RMK A01 T02300048  RH  031%=      5-min Rain = 0
KTH1 182107Z 23010G15KT 23/05 A2961 RMK A01 T02300049  RH  031%=      5-min Rain = 0
KTH1 182108Z 23009KT 23/05 A2961 RMK A01 T02300050  RH  031%=      5-min Rain = 0
KTH1 182109Z 23010KT 23/05 A2961 RMK A01 T02310050  RH  031%=      5-min Rain = 0
KTH1 182110Z 23013G18KT 23/05 A296 RMK A01 T02320051  RH  031%=      5-min Rain = 0
KTH1 182111Z 22012KT 23/05 A296 RMK A01 T02320049  RH  031%=      5-min Rain = 0
KTH1 182112Z 22011G17KT 23/05 A296 RMK A01 T02330050  RH  030%=      5-min Rain = 0
KTH1 182113Z 22012KT 23/05 A296 RMK A01 T02330050  RH  030%=      5-min Rain = 0
KTH1 182114Z 23011KT 23/05 A2961 RMK A01 T02330050  RH  031%=      5-min Rain = 0
KTH1 182115Z 23011G16KT 23/05 A2961 RMK A01 T02340051  RH  031%=      5-min Rain = 0
KTH1 182116Z 23009KT 24/05 A2961 RMK A01 T02350053  RH  031%=      5-min Rain = 0
KTH1 182117Z 23011KT 24/05 A296 RMK A01 T02350052  RH  031%=      5-min Rain = 0
KTH1 182118Z 23010KT 24/05 A296 RMK A01 T02360052  RH  030%=      5-min Rain = 0
KTH1 182119Z 22012KT 24/05 A296 RMK A01 T02360052  RH  030%=      5-min Rain = 0
KTH1 182120Z 23012KT 24/05 A296 RMK A01 T02360052  RH  030%=      5-min Rain = 0
KTH1 182121Z 22010KT 24/05 A296 RMK A01 T02350051  RH  030%=      5-min Rain = 0
KTH1 182122Z 23013G19KT 24/05 A296 RMK A01 T02350053  RH  031%=      5-min Rain = 0
KTH1 182123Z 23014KT 24/05 A296 RMK A01 T02350051  RH  030%=      5-min Rain = 0
KTH1 182124Z 22014G22KT 23/05 A296 RMK A01 T02340051  RH  030%=      5-min Rain = 0
KTH1 182125Z 23015G20KT 24/05 A296 RMK A01 T02350047  RH  030%=      5-min Rain = 0
KTH1 182126Z 22012KT 24/05 A296 RMK A01 T02360048  RH  030%=      5-min Rain = 0
KTH1 182127Z 23013KT 24/05 A296 RMK A01 T02360050  RH  030%=      5-min Rain = 0
KTH1 182128Z 23010KT 24/05 A296 RMK A01 T02370050  RH  030%=      5-min Rain = 0
KTH1 182129Z 22011G16KT 24/05 A296 RMK A01 T02360051  RH  030%=      5-min Rain = 0
KTH1 182130Z 23012G18KT 24/05 A296 RMK A01 T02360052  RH  030%=      5-min Rain = 0
KTH1 182131Z 24011KT 24/05 A296 RMK A01 T02360053  RH  031%=      5-min Rain = 0
KTH1 182132Z 23012G17KT 23/06 A296 RMK A01 T02340055  RH  032%=      5-min Rain = 0
KTH1 182133Z 23014KT 23/05 A296 RMK A01 T02310053  RH  032%=      5-min Rain = 0
KTH1 182134Z 24014KT 23/05 A296 RMK A01 T02310053  RH  031%=      5-min Rain = 0
KTH1 182135Z 24013G18KT 23/06 A296 RMK A01 T02300059  RH  033%=      5-min Rain = 0
KTH1 182136Z 24015KT 23/05 A296 RMK A01 T02260053  RH  032%=      5-min Rain = 0
KTH1 182137Z 24016KT 23/05 A296 RMK A01 T02270053  RH  032%=      5-min Rain = 0
KTH1 182138Z 24017G22KT 23/05 A2959 RMK A01 T02290050  RH  031%=      5-min Rain = 0
KTH1 182139Z 24020G27KT 23/05 A2959 RMK A01 T02300049  RH  031%=      5-min Rain = 0
KTH1 182140Z 25020G25KT 23/05 A2959 RMK A01 T02310050  RH  031%=      5-min Rain = 0
KTH1 182141Z 24020KT 23/05 A2959 RMK A01 T02290050  RH  031%=      5-min Rain = 0
KTH1 182142Z 24021G26KT 23/05 A2959 RMK A01 T02280049  RH  031%=      5-min Rain = 0
KTH1 182143Z 24021G26KT 23/05 A2959 RMK A01 T02310046  RH  030%=      5-min Rain = 0
KTH1 182144Z 24020KT 23/05 A2959 RMK A01 T02310048  RH  030%=      5-min Rain = 0
KTH1 182145Z 24018KT 23/05 A296 RMK A01 T02310050  RH  031%=      5-min Rain = 0
KTH1 182146Z 24019G25KT 23/05 A296 RMK A01 T02310046  RH  030%=      5-min Rain = 0
KTH1 182147Z 24024KT 23/04 A2959 RMK A01 T02320044  RH  029%=      5-min Rain = 0
KTH1 182148Z 23022G28KT 23/04 A296 RMK A01 T02320044  RH  029%=      5-min Rain = 0
KTH1 182149Z 24019G25KT 23/05 A296 RMK A01 T02320046  RH  030%=      5-min Rain = 0
KTH1 182150Z 24019G24KT 23/05 A296 RMK A01 T02310046  RH  030%=      5-min Rain = 0
KTH1 182151Z 24019KT 23/05 A296 RMK A01 T02310047  RH  030%=      5-min Rain = 0
KTH1 182152Z 24021KT 23/05 A296 RMK A01 T02300048  RH  031%=      5-min Rain = 0
KTH1 182153Z 24021KT 23/05 A2959 RMK A01 T02290046  RH  031%=      5-min Rain = 0
KTH1 182154Z 24019KT 23/05 A296 RMK A01 T02280048  RH  031%=      5-min Rain = 0
KTH1 182155Z 25021KT 23/05 A296 RMK A01 T02270052  RH  032%=      5-min Rain = 0
KTH1 182156Z 24020KT 23/05 A296 RMK A01 T02250052  RH  032%=      5-min Rain = 0
KTH1 182157Z 25022G28KT 22/05 A296 RMK A01 T02240049  RH  032%=      5-min Rain = 0
KTH1 182158Z 25021KT 23/05 A296 RMK A01 T02250049  RH  032%=      5-min Rain = 0
KTH1 182159Z 24019G25KT 23/05 A296 RMK A01 T02250050  RH  032%=      5-min Rain = 0
KTH1 182200Z 25021G26KT 23/05 A296 RMK A01 T02250049  RH  032%=      5-min Rain = 0
KTH1 182201Z 24022KT 22/05 A296 RMK A01 T02240051  RH  032%=      5-min Rain = 0
KTH1 182202Z 25019KT 22/05 A296 RMK A01 T02240048  RH  032%=      5-min Rain = 0
KTH1 182203Z 24021KT 23/05 A296 RMK A01 T02260049  RH  032%=      5-min Rain = 0
KTH1 182204Z 24019G25KT 23/05 A296 RMK A01 T02260051  RH  032%=      5-min Rain = 0
KTH1 182205Z 24022KT 23/05 A296 RMK A01 T02250048  RH  031%=      5-min Rain = 0
KTH1 182206Z 25020KT 23/05 A296 RMK A01 T02260052  RH  032%=      5-min Rain = 0
KTH1 182207Z 24022KT 22/05 A296 RMK A01 T02240048  RH  032%=      5-min Rain = 0
KTH1 182208Z 24019G24KT 23/05 A296 RMK A01 T02260047  RH  031%=      5-min Rain = 0
KTH1 182209Z 24017KT 23/05 A296 RMK A01 T02270046  RH  031%=      5-min Rain = 0
KTH1 182210Z 24020KT 23/05 A296 RMK A01 T02280046  RH  031%=      5-min Rain = 0
KTH1 182211Z 25019G24KT 23/05 A296 RMK A01 T02270049  RH  031%=      5-min Rain = 0
KTH1 182212Z 24015KT 22/05 A296 RMK A01 T02230052  RH  033%=      5-min Rain = 0
KTH1 182213Z 24019KT 22/05 A296 RMK A01 T02210050  RH  033%=      5-min Rain = 0
KTH1 182214Z 24017KT 22/05 A296 RMK A01 T02220050  RH  032%=      5-min Rain = 0
KTH1 182215Z 25018KT 22/05 A296 RMK A01 T02220054  RH  033%=      5-min Rain = 0
KTH1 182216Z 24017KT 22/05 A296 RMK A01 T02200053  RH  034%=      5-min Rain = 0
KTH1 182217Z 24017KT 22/05 A296 RMK A01 T02190051  RH  033%=      5-min Rain = 0
KTH1 182218Z 24017KT 22/05 A296 RMK A01 T02220046  RH  032%=      5-min Rain = 0
KTH1 182219Z 24015KT 23/05 A296 RMK A01 T02250046  RH  031%=      5-min Rain = 0
KTH1 182220Z 24019KT 23/05 A296 RMK A01 T02250046  RH  031%=      5-min Rain = 0
KTH1 182221Z 24020KT 23/05 A296 RMK A01 T02270047  RH  031%=      5-min Rain = 0
KTH1 182222Z 24017KT 23/05 A296 RMK A01 T02280049  RH  031%=      5-min Rain = 0
KTH1 182223Z 24018G23KT 23/05 A296 RMK A01 T02260050  RH  032%=      5-min Rain = 0
KTH1 182224Z 24015KT 23/05 A2961 RMK A01 T02250049  RH  032%=      5-min Rain = 0
KTH1 182225Z 25015KT 23/05 A2961 RMK A01 T02250052  RH  032%=      5-min Rain = 0
KTH1 182226Z 24017KT 22/05 A2961 RMK A01 T02220052  RH  033%=      5-min Rain = 0
KTH1 182227Z 24018KT 22/05 A2961 RMK A01 T02210049  RH  033%=      5-min Rain = 0
KTH1 182228Z 24019KT 22/05 A2961 RMK A01 T02220047  RH  032%=      5-min Rain = 0
KTH1 182229Z 23016G21KT 22/05 A2961 RMK A01 T02230047  RH  032%=      5-min Rain = 0
KTH1 182230Z 24016KT 22/05 A2961 RMK A01 T02230047  RH  032%=      5-min Rain = 0
KTH1 182231Z 24017KT 22/05 A2961 RMK A01 T02220047  RH  032%=      5-min Rain = 0
KTH1 182232Z 24016KT 22/05 A2961 RMK A01 T02210047  RH  032%=      5-min Rain = 0
KTH1 182233Z 25017KT 22/05 A2961 RMK A01 T02210048  RH  032%=      5-min Rain = 0
KTH1 182234Z 24012KT 22/05 A2961 RMK A01 T02200049  RH  033%=      5-min Rain = 0
KTH1 182235Z 24013KT 22/05 A2961 RMK A01 T02200049  RH  033%=      5-min Rain = 0
KTH1 182236Z 24014KT 22/05 A2961 RMK A01 T02190048  RH  033%=      5-min Rain = 0
KTH1 182237Z 24014KT 22/05 A2961 RMK A01 T02190048  RH  033%=      5-min Rain = 0
KTH1 182238Z 24013KT 22/05 A2961 RMK A01 T02190048  RH  033%=      5-min Rain = 0
KTH1 182239Z 24015G20KT 22/05 A2961 RMK A01 T02190046  RH  032%=      5-min Rain = 0
KTH1 182240Z 24015KT 22/05 A2961 RMK A01 T02200047  RH  032%=      5-min Rain = 0
KTH1 182241Z 24015KT 22/05 A2961 RMK A01 T02210046  RH  032%=      5-min Rain = 0
KTH1 182242Z 24013KT 22/05 A2961 RMK A01 T02210048  RH  032%=      5-min Rain = 0
KTH1 182243Z 24014KT 22/05 A2961 RMK A01 T02200048  RH  033%=      5-min Rain = 0
KTH1 182244Z 24015KT 22/05 A2961 RMK A01 T02190048  RH  033%=      5-min Rain = 0
KTH1 182245Z 23013G18KT 22/05 A2961 RMK A01 T02190048  RH  033%=      5-min Rain = 0
KTH1 182246Z 24013KT 22/05 A2961 RMK A01 T02180048  RH  033%=      5-min Rain = 0
KTH1 182247Z 24016G22KT 22/05 A2961 RMK A01 T02190046  RH  032%=      5-min Rain = 0
KTH1 182248Z 24016KT 22/05 A2961 RMK A01 T02200047  RH  032%=      5-min Rain = 0
KTH1 182249Z 23013KT 22/05 A2961 RMK A01 T02210048  RH  032%=      5-min Rain = 0
KTH1 182250Z 24012KT 22/05 A2961 RMK A01 T02200049  RH  033%=      5-min Rain = 0
KTH1 182251Z 24011KT 22/05 A2961 RMK A01 T02180050  RH  034%=      5-min Rain = 0
KTH1 182252Z 24010KT 22/05 A2961 RMK A01 T02160049  RH  034%=      5-min Rain = 0
KTH1 182253Z 23011KT 22/05 A2961 RMK A01 T02160049  RH  034%=      5-min Rain = 0
KTH1 182254Z 23011KT 22/05 A2961 RMK A01 T02170048  RH  033%=      5-min Rain = 0
KTH1 182255Z 24012KT 22/05 A2961 RMK A01 T02180048  RH  033%=      5-min Rain = 0
KTH1 182256Z 24012KT 22/05 A2961 RMK A01 T02180049  RH  033%=      5-min Rain = 0
KTH1 182257Z 23012KT 22/05 A2961 RMK A01 T02180050  RH  033%=      5-min Rain = 0
KTH1 182258Z 24014KT 22/05 A2961 RMK A01 T02170049  RH  033%=      5-min Rain = 0
KTH1 182259Z 24013KT 22/05 A2961 RMK A01 T02170050  RH  034%=      5-min Rain = 0
KTH1 182300Z 24012KT 22/05 A2961 RMK A01 T02150050  RH  034%=      5-min Rain = 0
KTH1 182301Z 24013KT 21/05 A2961 RMK A01 T02140051  RH  034%=      5-min Rain = 0
KTH1 182302Z 24011KT 21/05 A2961 RMK A01 T02130052  RH  035%=      5-min Rain = 0
KTH1 182303Z 24013KT 21/05 A2961 RMK A01 T02110052  RH  035%=      5-min Rain = 0
KTH1 182304Z 24013KT 21/05 A2961 RMK A01 T02110051  RH  035%=      5-min Rain = 0
KTH1 182305Z 24014KT 21/05 A2961 RMK A01 T02110050  RH  035%=      5-min Rain = 0
KTH1 182306Z 24012KT 21/05 A2961 RMK A01 T02110051  RH  035%=      5-min Rain = 0
KTH1 182307Z 24013KT 21/05 A2961 RMK A01 T02100052  RH  035%=      5-min Rain = 0
KTH1 182308Z 24013KT 21/05 A2961 RMK A01 T02100050  RH  035%=      5-min Rain = 0
KTH1 182309Z 24012KT 21/05 A2961 RMK A01 T02110049  RH  035%=      5-min Rain = 0
KTH1 182310Z 24013KT 21/05 A2961 RMK A01 T02120049  RH  034%=      5-min Rain = 0
KTH1 182311Z 24014KT 21/05 A2961 RMK A01 T02130048  RH  034%=      5-min Rain = 0
KTH1 182312Z 24012KT 21/05 A2961 RMK A01 T02140049  RH  034%=      5-min Rain = 0
KTH1 182313Z 24013KT 21/05 A2961 RMK A01 T02140050  RH  034%=      5-min Rain = 0
KTH1 182314Z 24013KT 21/05 A2961 RMK A01 T02130050  RH  035%=      5-min Rain = 0
KTH1 182315Z 24012KT 21/05 A2961 RMK A01 T02100054  RH  036%=      5-min Rain = 0
KTH1 182316Z 24012KT 21/05 A2961 RMK A01 T02070050  RH  036%=      5-min Rain = 0
KTH1 182317Z 24013KT 21/05 A2961 RMK A01 T02070050  RH  036%=      5-min Rain = 0
KTH1 182318Z 24012KT 21/05 A2961 RMK A01 T02080051  RH  036%=      5-min Rain = 0
KTH1 182319Z 24012KT 21/05 A2961 RMK A01 T02080051  RH  036%=      5-min Rain = 0
KTH1 182320Z 24012KT 21/05 A2961 RMK A01 T02080050  RH  035%=      5-min Rain = 0
KTH1 182321Z 24011KT 21/05 A2961 RMK A01 T02080050  RH  036%=      5-min Rain = 0
KTH1 182322Z 24011KT 21/05 A2961 RMK A01 T02080050  RH  035%=      5-min Rain = 0
KTH1 182323Z 24012KT 21/05 A2961 RMK A01 T02080050  RH  035%=      5-min Rain = 0
KTH1 182324Z 24012KT 21/05 A2961 RMK A01 T02080049  RH  035%=      5-min Rain = 0
KTH1 182325Z 24011KT 21/05 A2961 RMK A01 T02080049  RH  035%=      5-min Rain = 0
KTH1 182326Z 24011KT 21/05 A2961 RMK A01 T02080050  RH  035%=      5-min Rain = 0
KTH1 182327Z 24010KT 21/05 A2961 RMK A01 T02070052  RH  036%=      5-min Rain = 0
KTH1 182328Z 24011KT 21/05 A2961 RMK A01 T02060050  RH  036%=      5-min Rain = 0
KTH1 182329Z 24011KT 21/05 A2961 RMK A01 T02060050  RH  036%=      5-min Rain = 0
KTH1 182330Z 24011KT 21/05 A2961 RMK A01 T02060050  RH  036%=      5-min Rain = 0
KTH1 182331Z 24011KT 21/05 A2961 RMK A01 T02050051  RH  036%=      5-min Rain = 0
KTH1 182332Z 24011KT 21/05 A2961 RMK A01 T02050050  RH  036%=      5-min Rain = 0
KTH1 182333Z 24011KT 21/05 A2961 RMK A01 T02050051  RH  036%=      5-min Rain = 0
KTH1 182334Z 24012KT 20/05 A2961 RMK A01 T02040051  RH  037%=      5-min Rain = 0
KTH1 182335Z 24011KT 20/05 A2961 RMK A01 T02040051  RH  037%=      5-min Rain = 0
KTH1 182336Z 24011KT 20/05 A2961 RMK A01 T02040050  RH  036%=      5-min Rain = 0
KTH1 182337Z 24011KT 20/05 A2961 RMK A01 T02040049  RH  036%=      5-min Rain = 0
KTH1 182338Z 24011KT 21/05 A2961 RMK A01 T02050048  RH  036%=      5-min Rain = 0
KTH1 182339Z 24011KT 21/05 A2961 RMK A01 T02060050  RH  036%=      5-min Rain = 0
KTH1 182340Z 24010KT 21/05 A2961 RMK A01 T02050049  RH  036%=      5-min Rain = 0
KTH1 182341Z 24011KT 21/05 A2961 RMK A01 T02050050  RH  036%=      5-min Rain = 0
KTH1 182342Z 24011KT 21/05 A2961 RMK A01 T02050050  RH  036%=      5-min Rain = 0
KTH1 182343Z 24010KT 20/05 A2961 RMK A01 T02040051  RH  037%=      5-min Rain = 0
KTH1 182344Z 24012KT 20/05 A2961 RMK A01 T02030050  RH  037%=      5-min Rain = 0
KTH1 182345Z 24012KT 20/05 A2961 RMK A01 T02020050  RH  037%=      5-min Rain = 0
KTH1 182346Z 24012KT 20/05 A2961 RMK A01 T02010052  RH  037%=      5-min Rain = 0
KTH1 182347Z 24011KT 20/05 A2961 RMK A01 T02000052  RH  038%=      5-min Rain = 0
KTH1 182348Z 25012KT 20/05 A2961 RMK A01 T01990053  RH  039%=      5-min Rain = 0
KTH1 182349Z 25011KT 20/06 A2961 RMK A01 T01960055  RH  040%=      5-min Rain = 0
KTH1 182350Z 25011KT 19/06 A2961 RMK A01 T01930058  RH  041%=      5-min Rain = 0
KTH1 182351Z 25011KT 19/06 A2961 RMK A01 T01890061  RH  043%=      5-min Rain = 0
KTH1 182352Z 25011KT 19/06 A2961 RMK A01 T01850062  RH  045%=      5-min Rain = 0
KTH1 182353Z 25011KT 18/06 A2961 RMK A01 T01810063  RH  046%=      5-min Rain = 0
KTH1 182354Z 25011KT 18/06 A2961 RMK A01 T01780063  RH  047%=      5-min Rain = 0
KTH1 182355Z 26011KT 18/06 A2961 RMK A01 T01750063  RH  048%=      5-min Rain = 0
KTH1 182356Z 26011KT 17/06 A2961 RMK A01 T01730064  RH  048%=      5-min Rain = 0
KTH1 182357Z 26011KT 17/06 A2961 RMK A01 T01720063  RH  049%=      5-min Rain = 0
KTH1 182358Z 25011KT 17/06 A2961 RMK A01 T01720063  RH  049%=      5-min Rain = 0
KTH1 182359Z 25013G18KT 17/06 A2962 RMK A01 T01710063  RH  049%=      5-min Rain = 0
KTH1 190000Z 26012KT 17/06 A2962 RMK A01 T01740057  RH  046%=      5-min Rain = 0
KTH1 190001Z 26012KT 18/06 A2962 RMK A01 T01790058  RH  045%=      5-min Rain = 0
KTH1 190002Z 26012KT 18/06 A2962 RMK A01 T01800062  RH  046%=      5-min Rain = 0
KTH1 190003Z 26012KT 18/06 A2962 RMK A01 T01780061  RH  046%=      5-min Rain = 0
KTH1 190004Z 26011KT 18/06 A2962 RMK A01 T01790057  RH  045%=      5-min Rain = 0
KTH1 190005Z 26012KT 18/06 A2962 RMK A01 T01810057  RH  044%=      5-min Rain = 0
KTH1 190006Z 27011KT 19/05 A2962 RMK A01 T01850054  RH  042%=      5-min Rain = 0
KTH1 190007Z 27011KT 19/06 A2962 RMK A01 T01870055  RH  042%=      5-min Rain = 0
KTH1 190008Z 26011KT 19/05 A2962 RMK A01 T01890054  RH  041%=      5-min Rain = 0
KTH1 190009Z 26011KT 19/06 A2962 RMK A01 T01900055  RH  041%=      5-min Rain = 0
KTH1 190010Z 26012KT 19/06 A2962 RMK A01 T01910055  RH  041%=      5-min Rain = 0
KTH1 190011Z 26010KT 19/06 A2962 RMK A01 T01910056  RH  041%=      5-min Rain = 0
KTH1 190012Z 26012KT 19/06 A2962 RMK A01 T01900059  RH  042%=      5-min Rain = 0
KTH1 190013Z 26012KT 19/06 A2962 RMK A01 T01870060  RH  043%=      5-min Rain = 0
KTH1 190014Z 26012KT 19/06 A2962 RMK A01 T01850060  RH  044%=      5-min Rain = 0
KTH1 190015Z 26011KT 18/06 A2962 RMK A01 T01830060  RH  045%=      5-min Rain = 0
KTH1 190016Z 26012KT 18/06 A2962 RMK A01 T01810062  RH  046%=      5-min Rain = 0
KTH1 190017Z 26011KT 18/06 A2962 RMK A01 T01790063  RH  047%=      5-min Rain = 0
KTH1 190018Z 26010KT 18/06 A2962 RMK A01 T01750064  RH  048%=      5-min Rain = 0
KTH1 190019Z 25011KT 17/06 A2962 RMK A01 T01730063  RH  049%=      5-min Rain = 0
KTH1 190020Z 25011KT 17/06 A2962 RMK A01 T01720061  RH  048%=      5-min Rain = 0
KTH1 190021Z 25011KT 17/06 A2962 RMK A01 T01730060  RH  047%=      5-min Rain = 0
KTH1 190022Z 25011KT 17/06 A2962 RMK A01 T01740059  RH  047%=      5-min Rain = 0
KTH1 190023Z 25012KT 18/06 A2962 RMK A01 T01770056  RH  045%=      5-min Rain = 0
KTH1 190024Z 25012KT 18/06 A2962 RMK A01 T01810055  RH  044%=      5-min Rain = 0
KTH1 190025Z 25011KT 18/06 A2962 RMK A01 T01830059  RH  044%=      5-min Rain = 0
KTH1 190026Z 25012KT 18/06 A2962 RMK A01 T01820059  RH  044%=      5-min Rain = 0
KTH1 190027Z 25013KT 18/06 A2962 RMK A01 T01820055  RH  043%=      5-min Rain = 0
KTH1 190028Z 25014KT 18/06 A2962 RMK A01 T01830056  RH  043%=      5-min Rain = 0
KTH1 190029Z 25012KT 18/06 A2962 RMK A01 T01840055  RH  043%=      5-min Rain = 0
KTH1 190030Z 25012KT 18/06 A2962 RMK A01 T01840058  RH  044%=      5-min Rain = 0
KTH1 190031Z 26012KT 18/06 A2962 RMK A01 T01820058  RH  044%=      5-min Rain = 0
KTH1 190032Z 25012KT 18/06 A2962 RMK A01 T01800060  RH  045%=      5-min Rain = 0
KTH1 190033Z 25012KT 18/06 A2962 RMK A01 T01770060  RH  046%=      5-min Rain = 0
KTH1 190034Z 26011KT 18/06 A2962 RMK A01 T01760058  RH  046%=      5-min Rain = 0
KTH1 190035Z 26011KT 18/06 A2963 RMK A01 T01750060  RH  047%=      5-min Rain = 0
KTH1 190036Z 26011KT 17/06 A2963 RMK A01 T01740061  RH  048%=      5-min Rain = 0
KTH1 190037Z 26012KT 17/06 A2963 RMK A01 T01720062  RH  048%=      5-min Rain = 0
KTH1 190038Z 26011KT 17/06 A2963 RMK A01 T01710060  RH  048%=      5-min Rain = 0
KTH1 190039Z 26012KT 17/06 A2963 RMK A01 T01710059  RH  047%=      5-min Rain = 0
KTH1 190040Z 26012KT 17/06 A2963 RMK A01 T01720057  RH  046%=      5-min Rain = 0
KTH1 190041Z 26011KT 17/06 A2963 RMK A01 T01740058  RH  046%=      5-min Rain = 0
KTH1 190042Z 26011KT 17/06 A2963 RMK A01 T01740059  RH  047%=      5-min Rain = 0
KTH1 190043Z 26011KT 17/06 A2963 RMK A01 T01730059  RH  047%=      5-min Rain = 0
KTH1 190044Z 26011KT 17/06 A2963 RMK A01 T01720056  RH  046%=      5-min Rain = 0
KTH1 190045Z 26011KT 17/06 A2963 RMK A01 T01730057  RH  046%=      5-min Rain = 0
KTH1 190046Z 26011KT 17/05 A2963 RMK A01 T01740054  RH  045%=      5-min Rain = 0
KTH1 190047Z 26012KT 18/06 A2963 RMK A01 T01760056  RH  045%=      5-min Rain = 0
KTH1 190048Z 26012KT 18/05 A2963 RMK A01 T01770052  RH  044%=      5-min Rain = 0
KTH1 190049Z 26013KT 18/05 A2963 RMK A01 T01790053  RH  044%=      5-min Rain = 0
KTH1 190050Z 25016G26KT 18/05 A2963 RMK A01 T01800054  RH  043%=      5-min Rain = 0
KTH1 190051Z 27020G26KT 18/04 A2963 RMK A01 T01830040  RH  039%=      5-min Rain = 0
KTH1 190052Z 28020KT 19/04 A2963 RMK A01 T01900039  RH  037%=      5-min Rain = 0
KTH1 190053Z 27022G29KT 20/04 A2963 RMK A01 T01950038  RH  036%=      5-min Rain = 0
KTH1 190054Z 28021KT 20/04 A2963 RMK A01 T01970036  RH  034%=      5-min Rain = 0
KTH1 190055Z 27020KT 20/04 A2963 RMK A01 T01990038  RH  035%=      5-min Rain = 0
KTH1 190056Z 27022G27KT 20/04 A2962 RMK A01 T01980035  RH  034%=      5-min Rain = 0
KTH1 190057Z 28024G29KT 20/02 A2962 RMK A01 T02000022  RH  031%=      5-min Rain = 0
KTH1 190058Z 28023G29KT 20/03 A2962 RMK A01 T02030027  RH  031%=      5-min Rain = 0
KTH1 190059Z 28031G38KT 20/02 A2962 RMK A01 T02040017  RH  029%=      5-min Rain = 0
KTH1 190100Z 29028G33KT 21/02 A2962 RMK A01 T02070017  RH  028%=      5-min Rain = 0
KTH1 190101Z 28027G32KT 21/02 A2962 RMK A01 T02090019  RH  028%=      5-min Rain = 0
KTH1 190102Z 27027G32KT 21/02 A2963 RMK A01 T02090020  RH  029%=      5-min Rain = 0
KTH1 190103Z 27032G45KT 21/03 A2963 RMK A01 T02090025  RH  030%=      5-min Rain = 0
KTH1 190104Z 26029G36KT 21/03 A2963 RMK A01 T02060031  RH  031%=      5-min Rain = 0
KTH1 190105Z 26024KT 21/03 A2963 RMK A01 T02050028  RH  031%=      5-min Rain = 0
KTH1 190106Z 26024KT 21/03 A2963 RMK A01 T02060027  RH  031%=      5-min Rain = 0
KTH1 190107Z 26022KT 21/03 A2963 RMK A01 T02060029  RH  031%=      5-min Rain = 0
KTH1 190108Z 25020KT 20/03 A2963 RMK A01 T02040033  RH  032%=      5-min Rain = 0
KTH1 190109Z 25019KT 20/04 A2963 RMK A01 T02010036  RH  034%=      5-min Rain = 0
KTH1 190110Z 25015KT 20/04 A2963 RMK A01 T01980037  RH  035%=      5-min Rain = 0
KTH1 190111Z 25017KT 19/04 A2963 RMK A01 T01940039  RH  036%=      5-min Rain = 0
KTH1 190112Z 25019KT 19/04 A2963 RMK A01 T01920036  RH  036%=      5-min Rain = 0
KTH1 190113Z 26018KT 19/04 A2963 RMK A01 T01920039  RH  036%=      5-min Rain = 0
KTH1 190114Z 26018KT 19/04 A2963 RMK A01 T01910036  RH  036%=      5-min Rain = 0
KTH1 190115Z 25020KT 19/04 A2963 RMK A01 T01920037  RH  036%=      5-min Rain = 0
KTH1 190116Z 25018KT 19/04 A2963 RMK A01 T01930037  RH  036%=      5-min Rain = 0
KTH1 190117Z 27017KT 19/04 A2964 RMK A01 T01920041  RH  037%=      5-min Rain = 0
KTH1 190118Z 26017KT 19/04 A2964 RMK A01 T01910039  RH  036%=      5-min Rain = 0
KTH1 190119Z 26017KT 19/04 A2964 RMK A01 T01910042  RH  037%=      5-min Rain = 0
KTH1 190120Z 26018KT 19/04 A2964 RMK A01 T01890043  RH  038%=      5-min Rain = 0
KTH1 190121Z 26017KT 19/04 A2964 RMK A01 T01880044  RH  039%=      5-min Rain = 0
KTH1 190122Z 26019G24KT 19/04 A2964 RMK A01 T01860044  RH  039%=      5-min Rain = 0
KTH1 190123Z 26017KT 19/04 A2964 RMK A01 T01860042  RH  039%=      5-min Rain = 0
KTH1 190124Z 26018KT 19/04 A2964 RMK A01 T01870040  RH  038%=      5-min Rain = 0
KTH1 190125Z 26020KT 19/04 A2964 RMK A01 T01880039  RH  037%=      5-min Rain = 0
KTH1 190126Z 27019KT 19/04 A2964 RMK A01 T01910037  RH  036%=      5-min Rain = 0
KTH1 190127Z 26018KT 19/04 A2964 RMK A01 T01920040  RH  037%=      5-min Rain = 0
KTH1 190128Z 27017G22KT 19/04 A2964 RMK A01 T01910041  RH  037%=      5-min Rain = 0
KTH1 190129Z 27016KT 19/04 A2965 RMK A01 T01900038  RH  036%=      5-min Rain = 0
KTH1 190130Z 27019KT 19/04 A2965 RMK A01 T01910039  RH  036%=      5-min Rain = 0
KTH1 190131Z 27025G34KT 19/04 A2965 RMK A01 T01910038  RH  036%=      5-min Rain = 0
KTH1 190132Z 28035G41KT 19/03 A2965 RMK A01 T01920033  RH  035%=      5-min Rain = 0
KTH1 190133Z 28034G39KT 19/04 A2966 RMK A01 T01930036  RH  035%=      5-min Rain = 0
KTH1 190134Z 28042G50KT 19/04 A2966 RMK A01 T01910037  RH  036%=      5-min Rain = 0
KTH1 190135Z 28041G51KT 19/04 A2966 RMK A01 T01860039  RH  038%=      5-min Rain = 0
KTH1 190136Z 28038G47KT 18/04 A2967 RMK A01 T01820042  RH  039%=      5-min Rain = 0
KTH1 190137Z 29038G44KT 18/04 A2967 RMK A01 T01790043  RH  041%=      5-min Rain = 0
KTH1 190138Z 29032G38KT 18/04 A2967 RMK A01 T01780042  RH  041%=      5-min Rain = 0
KTH1 190139Z 29031KT 18/04 A2967 RMK A01 T01770042  RH  041%=      5-min Rain = 0
KTH1 190140Z 29028G33KT 18/04 A2968 RMK A01 T01760042  RH  041%=      5-min Rain = 0
KTH1 190141Z 29026KT 18/04 A2968 RMK A01 T01760042  RH  041%=      5-min Rain = 0
KTH1 190142Z 29030G38KT 18/04 A2967 RMK A01 T01760042  RH  041%=      5-min Rain = 0
KTH1 190143Z 28031G39KT 18/04 A2968 RMK A01 T01780040  RH  040%=      5-min Rain = 0
KTH1 190144Z 28028KT 18/04 A2968 RMK A01 T01800041  RH  040%=      5-min Rain = 0
KTH1 190145Z 27025KT 18/04 A2968 RMK A01 T01800041  RH  040%=      5-min Rain = 0
KTH1 190146Z 27024KT 18/04 A2969 RMK A01 T01800042  RH  040%=      5-min Rain = 0
KTH1 190147Z 27021G26KT 18/04 A2968 RMK A01 T01790043  RH  041%=      5-min Rain = 0
KTH1 190148Z 27019KT 18/04 A2969 RMK A01 T01770044  RH  041%=      5-min Rain = 0
KTH1 190149Z 28020KT 18/05 A2969 RMK A01 T01750046  RH  042%=      5-min Rain = 0
KTH1 190150Z 28028G35KT 18/05 A2969 RMK A01 T01750047  RH  043%=      5-min Rain = 0
KTH1 190151Z 27025G32KT 17/05 A2969 RMK A01 T01740046  RH  043%=      5-min Rain = 0
KTH1 190152Z 27017G23KT 17/05 A2968 RMK A01 T01740045  RH  042%=      5-min Rain = 0
KTH1 190153Z 25018G23KT 17/05 A2968 RMK A01 T01740048  RH  043%=      5-min Rain = 0
KTH1 190154Z 25019KT 17/05 A2969 RMK A01 T01710049  RH  044%=      5-min Rain = 0
KTH1 190155Z 24017KT 17/05 A2968 RMK A01 T01690051  RH  046%=      5-min Rain = 0
KTH1 190156Z 22015KT 17/05 A2968 RMK A01 T01690047  RH  044%=      5-min Rain = 0
KTH1 190157Z 23017G24KT 17/05 A2968 RMK A01 T01700049  RH  045%=      5-min Rain = 0
KTH1 190158Z 24014G19KT 17/04 A2968 RMK A01 T01730042  RH  042%=      5-min Rain = 0
KTH1 190159Z 24013G19KT 18/04 A2967 RMK A01 T01750043  RH  042%=      5-min Rain = 0
KTH1 190200Z 23016KT 18/03 A2966 RMK A01 T01750034  RH  039%=      5-min Rain = 0
KTH1 190201Z 22013G18KT 18/03 A2967 RMK A01 T01780031  RH  038%=      5-min Rain = 0
KTH1 190202Z 23013KT 18/03 A2967 RMK A01 T01780031  RH  037%=      5-min Rain = 0
KTH1 190203Z 23013KT 18/03 A2966 RMK A01 T01800029  RH  036%=      5-min Rain = 0
KTH1 190204Z 24016KT 18/03 A2966 RMK A01 T01810028  RH  036%=      5-min Rain = 0
KTH1 190205Z 23017G23KT 18/03 A2967 RMK A01 T01810029  RH  036%=      5-min Rain = 0
KTH1 190206Z 23015G21KT 18/03 A2967 RMK A01 T01810030  RH  037%=      5-min Rain = 0
KTH1 190207Z 22013KT 18/03 A2967 RMK A01 T01800034  RH  038%=      5-min Rain = 0
KTH1 190208Z 22013KT 18/04 A2967 RMK A01 T01780036  RH  039%=      5-min Rain = 0
KTH1 190209Z 22013G18KT 18/04 A2967 RMK A01 T01760038  RH  040%=      5-min Rain = 0
KTH1 190210Z 22013G18KT 18/04 A2967 RMK A01 T01750039  RH  040%=      5-min Rain = 0
KTH1 190211Z 23016G21KT 17/04 A2967 RMK A01 T01740041  RH  041%=      5-min Rain = 0
KTH1 190212Z 22015KT 17/04 A2968 RMK A01 T01730041  RH  042%=      5-min Rain = 0
KTH1 190213Z 22015G20KT 17/04 A2968 RMK A01 T01730042  RH  042%=      5-min Rain = 0
KTH1 190214Z 22015KT 17/04 A2968 RMK A01 T01730044  RH  042%=      5-min Rain = 0
KTH1 190215Z 23014G19KT 17/04 A2967 RMK A01 T01720044  RH  043%=      5-min Rain = 0
KTH1 190216Z 23014KT 17/05 A2968 RMK A01 T01720045  RH  043%=      5-min Rain = 0
KTH1 190217Z 23013KT 17/05 A2968 RMK A01 T01710045  RH  043%=      5-min Rain = 0
KTH1 190218Z 23015G21KT 17/05 A2968 RMK A01 T01710047  RH  044%=      5-min Rain = 0
KTH1 190219Z 22014G19KT 17/05 A2968 RMK A01 T01710047  RH  044%=      5-min Rain = 0
KTH1 190220Z 22012KT 17/05 A2968 RMK A01 T01700049  RH  045%=      5-min Rain = 0
KTH1 190221Z 23013G19KT 17/05 A2968 RMK A01 T01690049  RH  045%=      5-min Rain = 0
KTH1 190222Z 22015G20KT 17/05 A2968 RMK A01 T01680050  RH  046%=      5-min Rain = 0
KTH1 190223Z 22015G21KT 17/05 A2968 RMK A01 T01680050  RH  046%=      5-min Rain = 0
KTH1 190224Z 22016KT 17/05 A2968 RMK A01 T01680050  RH  045%=      5-min Rain = 0
KTH1 190225Z 21017G22KT 17/05 A2968 RMK A01 T01680050  RH  046%=      5-min Rain = 0
KTH1 190226Z 22015G21KT 17/05 A2968 RMK A01 T01680050  RH  046%=      5-min Rain = 0
KTH1 190227Z 22014G19KT 17/05 A2968 RMK A01 T01680051  RH  046%=      5-min Rain = 0
KTH1 190228Z 21015KT 17/05 A2968 RMK A01 T01680052  RH  046%=      5-min Rain = 0
KTH1 190229Z 21014KT 17/05 A2968 RMK A01 T01690052  RH  046%=      5-min Rain = 0
KTH1 190230Z 21013G19KT 17/05 A2967 RMK A01 T01690052  RH  046%=      5-min Rain = 0
KTH1 190231Z 21015KT 17/05 A2967 RMK A01 T01680053  RH  046%=      5-min Rain = 0
KTH1 190232Z 20013KT 17/05 A2967 RMK A01 T01680053  RH  047%=      5-min Rain = 0
KTH1 190233Z 21012G18KT 17/05 A2967 RMK A01 T01670054  RH  047%=      5-min Rain = 0
KTH1 190234Z 21015G23KT 17/06 A2967 RMK A01 T01660055  RH  048%=      5-min Rain = 0
KTH1 190235Z 22018G25KT 17/05 A2966 RMK A01 T01650053  RH  047%=      5-min Rain = 0
KTH1 190236Z 21015G23KT 17/05 A2966 RMK A01 T01660048  RH  045%=      5-min Rain = 0
KTH1 190237Z 21017KT 17/05 A2966 RMK A01 T01670050  RH  046%=      5-min Rain = 0
KTH1 190238Z 21014KT 17/05 A2965 RMK A01 T01670050  RH  046%=      5-min Rain = 0
KTH1 190239Z 21012KT 17/05 A2965 RMK A01 T01660050  RH  046%=      5-min Rain = 0
KTH1 190240Z 21013KT 17/05 A2965 RMK A01 T01650051  RH  047%=      5-min Rain = 0
KTH1 190241Z 21011KT 16/05 A2965 RMK A01 T01640051  RH  047%=      5-min Rain = 0
KTH1 190242Z 20011G16KT 16/05 A2965 RMK A01 T01630052  RH  048%=      5-min Rain = 0
KTH1 190243Z 21011KT 16/05 A2965 RMK A01 T01630051  RH  047%=      5-min Rain = 0
KTH1 190244Z 21012KT 16/05 A2965 RMK A01 T01620050  RH  047%=      5-min Rain = 0
KTH1 190245Z 22007KT 16/05 A2965 RMK A01 T01620050  RH  047%=      5-min Rain = 0
KTH1 190246Z 22010KT 16/05 A2966 RMK A01 T01620051  RH  048%=      5-min Rain = 0
KTH1 190247Z 23009KT 16/05 A2966 RMK A01 T01610050  RH  048%=      5-min Rain = 0
KTH1 190248Z 22011KT 16/05 A2966 RMK A01 T01610049  RH  047%=      5-min Rain = 0
KTH1 190249Z 23011KT 16/05 A2967 RMK A01 T01610047  RH  047%=      5-min Rain = 0
KTH1 190250Z 23012KT 16/05 A2967 RMK A01 T01610047  RH  046%=      5-min Rain = 0
KTH1 190251Z 23010KT 16/05 A2967 RMK A01 T01620045  RH  046%=      5-min Rain = 0
KTH1 190252Z 23011KT 16/05 A2967 RMK A01 T01620045  RH  046%=      5-min Rain = 0
KTH1 190253Z 23012KT 16/04 A2967 RMK A01 T01620042  RH  045%=      5-min Rain = 0
KTH1 190254Z 23010KT 16/04 A2967 RMK A01 T01630042  RH  044%=      5-min Rain = 0
KTH1 190255Z 23010KT 16/04 A2967 RMK A01 T01640042  RH  044%=      5-min Rain = 0
KTH1 190256Z 23011KT 16/04 A2967 RMK A01 T01640041  RH  044%=      5-min Rain = 0
KTH1 190257Z 23010KT 16/04 A2968 RMK A01 T01640041  RH  044%=      5-min Rain = 0
KTH1 190258Z 23012KT 16/04 A2968 RMK A01 T01640041  RH  044%=      5-min Rain = 0
KTH1 190259Z 23011KT 16/04 A2968 RMK A01 T01630041  RH  044%=      5-min Rain = 0
KTH1 190300Z 23010KT 16/04 A2968 RMK A01 T01630042  RH  045%=      5-min Rain = 0
KTH1 190301Z 24010KT 16/04 A2968 RMK A01 T01620043  RH  045%=      5-min Rain = 0
KTH1 190302Z 24011KT 16/04 A2968 RMK A01 T01600042  RH  045%=      5-min Rain = 0
KTH1 190303Z 23011KT 16/04 A2968 RMK A01 T01600041  RH  045%=      5-min Rain = 0
KTH1 190304Z 23014KT 16/04 A2968 RMK A01 T01600039  RH  044%=      5-min Rain = 0
KTH1 190305Z 24014KT 16/04 A2968 RMK A01 T01610037  RH  043%=      5-min Rain = 0
KTH1 190306Z 24013KT 16/04 A2968 RMK A01 T01620036  RH  043%=      5-min Rain = 0
KTH1 190307Z 24013KT 16/04 A2968 RMK A01 T01620037  RH  043%=      5-min Rain = 0
KTH1 190308Z 24012KT 16/04 A2968 RMK A01 T01620037  RH  043%=      5-min Rain = 0
KTH1 190309Z 23011KT 16/04 A2968 RMK A01 T01620035  RH  043%=      5-min Rain = 0
KTH1 190310Z 23011KT 16/04 A2968 RMK A01 T01620035  RH  043%=      5-min Rain = 0
KTH1 190311Z 23011KT 16/04 A2968 RMK A01 T01620035  RH  042%=      5-min Rain = 0
KTH1 190312Z 23011KT 16/04 A2968 RMK A01 T01620035  RH  042%=      5-min Rain = 0
KTH1 190313Z 23011KT 16/04 A2968 RMK A01 T01620035  RH  043%=      5-min Rain = 0
KTH1 190314Z 22010KT 16/04 A2968 RMK A01 T01620035  RH  043%=      5-min Rain = 0
KTH1 190315Z 22009KT 16/04 A2968 RMK A01 T01610036  RH  043%=      5-min Rain = 0
KTH1 190316Z 23008KT 16/04 A2968 RMK A01 T01600037  RH  044%=      5-min Rain = 0
KTH1 190317Z 22008KT 16/04 A2968 RMK A01 T01580038  RH  045%=      5-min Rain = 0
KTH1 190318Z 23009KT 16/04 A2968 RMK A01 T01570037  RH  045%=      5-min Rain = 0
KTH1 190319Z 23009KT 16/04 A2968 RMK A01 T01570037  RH  045%=      5-min Rain = 0
KTH1 190320Z 23009KT 16/04 A2968 RMK A01 T01560036  RH  045%=      5-min Rain = 0
KTH1 190321Z 24008KT 16/04 A2968 RMK A01 T01560037  RH  045%=      5-min Rain = 0
KTH1 190322Z 28010KT 16/04 A297 RMK A01 T01550038  RH  046%=      5-min Rain = 0
KTH1 190323Z 33020G27KT 15/05 A2972 RMK A01 T01520049  RH  050%=      5-min Rain = 0
KTH1 190324Z 32022G27KT 14/04 A2972 RMK A01 T01440035  RH  048%=      5-min Rain = 0
KTH1 190325Z 32018G23KT 13/03 A2972 RMK A01 T01330033  RH  051%=      5-min Rain = 0
KTH1 190326Z 32016KT 13/03 A2972 RMK A01 T01260034  RH  053%=      5-min Rain = 0
KTH1 190327Z 33015G22KT 12/03 A2973 RMK A01 T01210034  RH  055%=      5-min Rain = 0
KTH1 190328Z 33017G22KT 12/03 A2973 RMK A01 T01170034  RH  057%=      5-min Rain = 0
KTH1 190329Z 32018KT 11/03 A2973 RMK A01 T01140034  RH  058%=      5-min Rain = 0
KTH1 190330Z 32017G22KT 11/03 A2973 RMK A01 T01110034  RH  059%=      5-min Rain = 0
KTH1 190331Z 32019G25KT 11/03 A2973 RMK A01 T01070033  RH  060%=      5-min Rain = 0
KTH1 190332Z 32022G27KT 11/03 A2974 RMK A01 T01050032  RH  061%=      5-min Rain = 0
KTH1 190333Z 32024G29KT 10/03 A2974 RMK A01 T01030031  RH  061%=      5-min Rain = 0
KTH1 190334Z 33022G29KT 10/03 A2974 RMK A01 T01020031  RH  061%=      5-min Rain = 0
KTH1 190335Z 32018KT 10/03 A2974 RMK A01 T01000031  RH  062%=      5-min Rain = 0
KTH1 190336Z 32018G23KT 10/03 A2974 RMK A01 T00990032  RH  063%=      5-min Rain = 0
KTH1 190337Z 32022G28KT 10/03 A2974 RMK A01 T00980031  RH  063%=      5-min Rain = 0
KTH1 190338Z 33021KT 10/03 A2975 RMK A01 T00970031  RH  063%=      5-min Rain = 0
KTH1 190339Z 33015KT 10/03 A2975 RMK A01 T00960031  RH  064%=      5-min Rain = 0
KTH1 190340Z 32016KT 10/03 A2975 RMK A01 T00950032  RH  065%=      5-min Rain = 0
KTH1 190341Z 32018G26KT 10/03 A2975 RMK A01 T00950032  RH  065%=      5-min Rain = 0
KTH1 190342Z 32017G23KT 09/03 A2975 RMK A01 T00940032  RH  065%=      5-min Rain = 0
KTH1 190343Z 33017G22KT 09/03 A2975 RMK A01 T00940033  RH  066%=      5-min Rain = 0
KTH1 190344Z 33021G27KT 09/03 A2975 RMK A01 T00930032  RH  065%=      5-min Rain = 0
KTH1 190345Z 33018G23KT 09/03 A2975 RMK A01 T00930032  RH  066%=      5-min Rain = 0
KTH1 190346Z 33018KT 09/03 A2975 RMK A01 T00920032  RH  066%=      5-min Rain = 0
KTH1 190347Z 32016G23KT 09/03 A2975 RMK A01 T00920033  RH  067%=      5-min Rain = 0
KTH1 190348Z 32019G25KT 09/03 A2975 RMK A01 T00910033  RH  067%=      5-min Rain = 0
KTH1 190349Z 33021G26KT 09/03 A2976 RMK A01 T00910033  RH  067%=      5-min Rain = 0
KTH1 190350Z 32025KT 09/03 A2976 RMK A01 T00900033  RH  067%=      5-min Rain = 0
KTH1 190351Z 32024KT 09/03 A2976 RMK A01 T00900033  RH  067%=      5-min Rain = 0
KTH1 190352Z 32023KT 09/03 A2976 RMK A01 T00900034  RH  068%=      5-min Rain = 0
KTH1 190353Z 33022G30KT 09/03 A2976 RMK A01 T00890034  RH  068%=      5-min Rain = 0
KTH1 190354Z 33021G30KT 09/03 A2976 RMK A01 T00890033  RH  068%=      5-min Rain = 0
KTH1 190355Z 33017KT 09/03 A2976 RMK A01 T00880034  RH  069%=      5-min Rain = 0
KTH1 190356Z 32016KT 09/03 A2976 RMK A01 T00880034  RH  069%=      5-min Rain = 0
KTH1 190357Z 33017G23KT 09/03 A2976 RMK A01 T00870034  RH  069%=      5-min Rain = 0
KTH1 190358Z 33019G26KT 09/03 A2976 RMK A01 T00870034  RH  070%=      5-min Rain = 0
KTH1 190359Z 33018G23KT 09/03 A2976 RMK A01 T00870034  RH  070%=      5-min Rain = 0
KTH1 190400Z 32018G25KT 09/03 A2976 RMK A01 T00860034  RH  070%=      5-min Rain = 0
KTH1 190401Z 32018KT 09/04 A2977 RMK A01 T00860036  RH  071%=      5-min Rain = 0
KTH1 190402Z 32017G23KT 09/04 A2977 RMK A01 T00860035  RH  071%=      5-min Rain = 0
KTH1 190403Z 33017G22KT 09/04 A2977 RMK A01 T00850035  RH  071%=      5-min Rain = 0
KTH1 190404Z 32018G24KT 09/04 A2977 RMK A01 T00850036  RH  071%=      5-min Rain = 0
KTH1 190405Z 33018G25KT 09/04 A2977 RMK A01 T00850035  RH  071%=      5-min Rain = 0
KTH1 190406Z 33019KT 09/03 A2977 RMK A01 T00850034  RH  071%=      5-min Rain = 0
KTH1 190407Z 33018G23KT 08/04 A2977 RMK A01 T00840035  RH  071%=      5-min Rain = 0
KTH1 190408Z 32015KT 08/04 A2977 RMK A01 T00840035  RH  071%=      5-min Rain = 0
KTH1 190409Z 32018G23KT 08/04 A2977 RMK A01 T00830036  RH  072%=      5-min Rain = 0
KTH1 190410Z 32018G23KT 08/04 A2977 RMK A01 T00830036  RH  072%=      5-min Rain = 0
KTH1 190411Z 33018G24KT 08/04 A2977 RMK A01 T00830035  RH  072%=      5-min Rain = 0
KTH1 190412Z 32020KT 08/04 A2977 RMK A01 T00830035  RH  072%=      5-min Rain = 0
KTH1 190413Z 32018G23KT 08/04 A2977 RMK A01 T00820035  RH  072%=      5-min Rain = 0
KTH1 190414Z 32019G26KT 08/04 A2977 RMK A01 T00830036  RH  072%=      5-min Rain = 0
KTH1 190415Z 32019KT 08/04 A2977 RMK A01 T00820035  RH  072%=      5-min Rain = 0
KTH1 190416Z 32016G22KT 08/04 A2977 RMK A01 T00820036  RH  073%=      5-min Rain = 0
KTH1 190417Z 32016KT 08/04 A2978 RMK A01 T00820036  RH  073%=      5-min Rain = 0
KTH1 190418Z 32018G24KT 08/04 A2977 RMK A01 T00810036  RH  073%=      5-min Rain = 0
KTH1 190419Z 32020G27KT 08/04 A2978 RMK A01 T00810035  RH  073%=      5-min Rain = 0
KTH1 190420Z 33020G25KT 08/04 A2978 RMK A01 T00810036  RH  073%=      5-min Rain = 0
KTH1 190421Z 32019KT 08/04 A2978 RMK A01 T00810036  RH  073%=      5-min Rain = 0
KTH1 190422Z 32019KT 08/04 A2978 RMK A01 T00810036  RH  073%=      5-min Rain = 0
KTH1 190423Z 33018KT 08/04 A2978 RMK A01 T00810035  RH  073%=      5-min Rain = 0
KTH1 190424Z 32015KT 08/04 A2978 RMK A01 T00800036  RH  073%=      5-min Rain = 0
KTH1 190425Z 32013G18KT 08/04 A2978 RMK A01 T00800036  RH  074%=      5-min Rain = 0
KTH1 190426Z 32018KT 08/04 A2978 RMK A01 T00800037  RH  074%=      5-min Rain = 0
KTH1 190427Z 32019KT 08/04 A2979 RMK A01 T00790037  RH  074%=      5-min Rain = 0
KTH1 190428Z 33015KT 08/04 A2979 RMK A01 T00790036  RH  074%=      5-min Rain = 0
KTH1 190429Z 32018G23KT 08/04 A2979 RMK A01 T00790036  RH  074%=      5-min Rain = 0
KTH1 190430Z 32019G24KT 08/04 A2979 RMK A01 T00790036  RH  074%=      5-min Rain = 0
KTH1 190431Z 32014KT 08/04 A2979 RMK A01 T00790036  RH  074%=      5-min Rain = 0
KTH1 190432Z 33016G23KT 08/04 A2979 RMK A01 T00800038  RH  075%=      5-min Rain = 0
KTH1 190433Z 32018KT 08/04 A2979 RMK A01 T00790037  RH  075%=      5-min Rain = 0
KTH1 190434Z 33015KT 08/04 A2979 RMK A01 T00790037  RH  075%=      5-min Rain = 0
KTH1 190435Z 32015KT 08/04 A298 RMK A01 T00790037  RH  075%=      5-min Rain = 0
KTH1 190436Z 32015KT 08/04 A298 RMK A01 T00790037  RH  075%=      5-min Rain = 0
KTH1 190437Z 32017G24KT 08/04 A298 RMK A01 T00790037  RH  075%=      5-min Rain = 0
KTH1 190438Z 32015KT 08/04 A298 RMK A01 T00790038  RH  075%=      5-min Rain = 0
KTH1 190439Z 32017G23KT 08/04 A298 RMK A01 T00800038  RH  075%=      5-min Rain = 0
KTH1 190440Z 32017G22KT 08/04 A2981 RMK A01 T00800038  RH  075%=      5-min Rain = 0
KTH1 190441Z 32015KT 08/04 A2981 RMK A01 T00810038  RH  074%=      5-min Rain = 0
KTH1 190442Z 32015KT 08/04 A2981 RMK A01 T00810039  RH  075%=      5-min Rain = 0
KTH1 190443Z 32018KT 08/04 A2981 RMK A01 T00810039  RH  075%=      5-min Rain = 0
KTH1 190444Z 33016G22KT 08/04 A2981 RMK A01 T00820039  RH  074%=      5-min Rain = 0
KTH1 190445Z 33018G25KT 08/04 A2981 RMK A01 T00820040  RH  074%=      5-min Rain = 0
KTH1 190446Z 33018G23KT 08/04 A2981 RMK A01 T00830039  RH  074%=      5-min Rain = 0
KTH1 190447Z 33013KT 08/04 A2981 RMK A01 T00830039  RH  074%=      5-min Rain = 0
KTH1 190448Z 33017G22KT 08/04 A2981 RMK A01 T00830039  RH  074%=      5-min Rain = 0
KTH1 190449Z 33018KT 08/04 A2982 RMK A01 T00830040  RH  074%=      5-min Rain = 0
KTH1 190450Z 32018KT 08/04 A2982 RMK A01 T00840040  RH  074%=      5-min Rain = 0
KTH1 190451Z 32019KT 08/04 A2982 RMK A01 T00840040  RH  074%=      5-min Rain = 0
KTH1 190452Z 33017G26KT 08/04 A2982 RMK A01 T00840041  RH  074%=      5-min Rain = 0
KTH1 190453Z 32015KT 09/04 A2982 RMK A01 T00850041  RH  074%=      5-min Rain = 0
KTH1 190454Z 33016KT 09/04 A2982 RMK A01 T00850041  RH  074%=      5-min Rain = 0
KTH1 190455Z 32015KT 09/04 A2982 RMK A01 T00850041  RH  074%=      5-min Rain = 0
KTH1 190456Z 33019G26KT 09/04 A2982 RMK A01 T00850041  RH  074%=      5-min Rain = 0
KTH1 190457Z 32022G28KT 09/04 A2983 RMK A01 T00850041  RH  074%=      5-min Rain = 0
KTH1 190458Z 33018KT 09/04 A2983 RMK A01 T00850041  RH  074%=      5-min Rain = 0
KTH1 190459Z 33020G25KT 09/04 A2983 RMK A01 T00850041  RH  074%=      5-min Rain = 0
KTH1 190500Z 33017G24KT 09/04 A2983 RMK A01 T00850040  RH  073%=      5-min Rain = 0
KTH1 190501Z 33019G26KT 09/04 A2983 RMK A01 T00850041  RH  074%=      5-min Rain = 0
KTH1 190502Z 33018KT 09/04 A2983 RMK A01 T00850040  RH  073%=      5-min Rain = 0
KTH1 190503Z 32022G28KT 09/04 A2983 RMK A01 T00850040  RH  073%=      5-min Rain = 0
KTH1 190504Z 33019G25KT 09/04 A2984 RMK A01 T00850040  RH  073%=      5-min Rain = 0
KTH1 190505Z 33023G32KT 09/04 A2983 RMK A01 T00850040  RH  073%=      5-min Rain = 0
KTH1 190506Z 34022G29KT 09/04 A2984 RMK A01 T00850039  RH  073%=      5-min Rain = 0
KTH1 190507Z 33022G29KT 09/04 A2984 RMK A01 T00850038  RH  073%=      5-min Rain = 0
KTH1 190508Z 33020G25KT 09/04 A2984 RMK A01 T00850039  RH  073%=      5-min Rain = 0
KTH1 190509Z 33016G22KT 09/04 A2984 RMK A01 T00850039  RH  073%=      5-min Rain = 0
KTH1 190510Z 34015G20KT 09/04 A2984 RMK A01 T00850039  RH  073%=      5-min Rain = 0
KTH1 190511Z 33019G26KT 08/04 A2984 RMK A01 T00840039  RH  073%=      5-min Rain = 0
KTH1 190512Z 33018KT 08/04 A2984 RMK A01 T00840039  RH  073%=      5-min Rain = 0
KTH1 190513Z 33021G29KT 08/04 A2984 RMK A01 T00840039  RH  073%=      5-min Rain = 0
KTH1 190514Z 32021KT 08/04 A2984 RMK A01 T00840037  RH  072%=      5-min Rain = 0
KTH1 190515Z 31020KT 08/04 A2984 RMK A01 T00830038  RH  074%=      5-min Rain = 0
KTH1 190516Z 32019G25KT 08/04 A2984 RMK A01 T00820038  RH  074%=      5-min Rain = 0
KTH1 190517Z 32018G23KT 08/04 A2984 RMK A01 T00800036  RH  074%=      5-min Rain = 0
KTH1 190518Z 32019KT 08/04 A2984 RMK A01 T00790036  RH  074%=      5-min Rain = 0
KTH1 190519Z 33021G27KT 08/04 A2984 RMK A01 T00790035  RH  074%=      5-min Rain = 0
KTH1 190520Z 33021G26KT 08/03 A2984 RMK A01 T00780034  RH  074%=      5-min Rain = 0
KTH1 190521Z 33020G28KT 08/03 A2985 RMK A01 T00770034  RH  074%=      5-min Rain = 0
KTH1 190522Z 33022G30KT 08/03 A2984 RMK A01 T00770034  RH  074%=      5-min Rain = 0
KTH1 190523Z 33020G25KT 08/03 A2985 RMK A01 T00770033  RH  074%=      5-min Rain = 0
KTH1 190524Z 33019KT 08/03 A2985 RMK A01 T00760033  RH  074%=      5-min Rain = 0
KTH1 190525Z 32015KT 08/03 A2985 RMK A01 T00760033  RH  074%=      5-min Rain = 0
KTH1 190526Z 33014KT 08/04 A2985 RMK A01 T00750035  RH  075%=      5-min Rain = 0
KTH1 190527Z 32016KT 08/04 A2986 RMK A01 T00750035  RH  075%=      5-min Rain = 0
KTH1 190528Z 33020KT 08/03 A2986 RMK A01 T00750034  RH  075%=      5-min Rain = 0
KTH1 190529Z 33019G24KT 08/03 A2986 RMK A01 T00750033  RH  075%=      5-min Rain = 0
KTH1 190530Z 32019G24KT 07/03 A2986 RMK A01 T00740033  RH  075%=      5-min Rain = 0
KTH1 190531Z 33021KT 07/03 A2987 RMK A01 T00740033  RH  075%=      5-min Rain = 0
KTH1 190532Z 33018KT 07/03 A2987 RMK A01 T00740032  RH  075%=      5-min Rain = 0
KTH1 190533Z 32022G27KT 07/03 A2986 RMK A01 T00730032  RH  075%=      5-min Rain = 0
KTH1 190534Z 32020G26KT 07/03 A2987 RMK A01 T00730032  RH  075%=      5-min Rain = 0
KTH1 190535Z 32018KT 07/03 A2987 RMK A01 T00730033  RH  076%=      5-min Rain = 0
KTH1 190536Z 32018KT 07/03 A2987 RMK A01 T00730032  RH  076%=      5-min Rain = 0
KTH1 190537Z 33017G22KT 07/03 A2987 RMK A01 T00720032  RH  076%=      5-min Rain = 0
KTH1 190538Z 33019KT 07/03 A2987 RMK A01 T00720031  RH  075%=      5-min Rain = 0
KTH1 190539Z 33021G28KT 07/03 A2987 RMK A01 T00720030  RH  075%=      5-min Rain = 0
KTH1 190540Z 33021G26KT 07/03 A2987 RMK A01 T00710029  RH  075%=      5-min Rain = 0
KTH1 190541Z 32022G28KT 07/03 A2987 RMK A01 T00710029  RH  075%=      5-min Rain = 0
KTH1 190542Z 33021KT 07/03 A2988 RMK A01 T00700029  RH  075%=      5-min Rain = 0
KTH1 190543Z 33024KT 07/03 A2988 RMK A01 T00700029  RH  075%=      5-min Rain = 0
KTH1 190544Z 33025KT 07/03 A2988 RMK A01 T00700028  RH  074%=      5-min Rain = 0
KTH1 190545Z 33017G23KT 07/03 A2988 RMK A01 T00700028  RH  074%=      5-min Rain = 0
KTH1 190546Z 33019G26KT 07/03 A2989 RMK A01 T00700028  RH  075%=      5-min Rain = 0
KTH1 190547Z 33017KT 07/03 A2989 RMK A01 T00690027  RH  074%=      5-min Rain = 0
KTH1 190548Z 33017G23KT 07/03 A2989 RMK A01 T00690028  RH  075%=      5-min Rain = 0
KTH1 190549Z 32017KT 07/03 A2989 RMK A01 T00690027  RH  075%=      5-min Rain = 0
KTH1 190550Z 33019G24KT 07/03 A2989 RMK A01 T00690028  RH  075%=      5-min Rain = 0
KTH1 190551Z 32023G31KT 07/03 A2989 RMK A01 T00690028  RH  075%=      5-min Rain = 0
KTH1 190552Z 32026KT 07/03 A2989 RMK A01 T00680026  RH  075%=      5-min Rain = 0
KTH1 190553Z 33028G34KT 07/02 A2989 RMK A01 T00670024  RH  074%=      5-min Rain = 0
KTH1 190554Z 33024G30KT 07/02 A2989 RMK A01 T00660023  RH  074%=      5-min Rain = 0
KTH1 190555Z 33021G26KT 07/02 A2989 RMK A01 T00660022  RH  074%=      5-min Rain = 0
KTH1 190556Z 33024G33KT 07/02 A299 RMK A01 T00660023  RH  074%=      5-min Rain = 0
KTH1 190557Z 33024G29KT 07/02 A2989 RMK A01 T00650022  RH  074%=      5-min Rain = 0
KTH1 190558Z 33025G32KT 07/02 A299 RMK A01 T00650022  RH  074%=      5-min Rain = 0
KTH1 190559Z 32024G30KT 07/02 A299 RMK A01 T00650022  RH  074%=      5-min Rain = 0

Page generated in 0.0712 seconds.